<?xml version="1.0" encoding="UTF-8" standalone="no" ?>
<gpx xmlns="http://www.topografix.com/GPX/1/1" xmlns:xsi="http://www.w3.org/2001/XMLSchema-instance" xsi:schemaLocation="http://www.topografix.com/GPX/1/1 http://www.topografix.com/GPX/1/1/gpx.xsd" version="1.1" creator="VisuGPX - https://www.visugpx.com">
  <metadata>
    <name>Les Deux saint, Angles, Vergons</name>
    <desc><![CDATA[Parcours:: Route, Piste]]></desc>
  </metadata>
  <trk>
    <name><![CDATA[13054198-Les Deux saint, Angles, Vergons]]></name>
    <extensions>
      <line xmlns="http://www.topografix.com/GPX/gpx_style/0/2">
        <color>0000FF</color>
        <width>4</width>
      </line>
    </extensions>
    <trkseg>
      <trkpt lat="43.97152" lon="6.51132">
        <ele>899</ele>
        <time>2022-05-10T13:31:04.000Z</time>
      </trkpt>
      <trkpt lat="43.97086" lon="6.51096">
        <ele>900</ele>
        <time>2022-05-10T13:31:31.858Z</time>
      </trkpt>
      <trkpt lat="43.97086" lon="6.51127">
        <ele>899</ele>
        <time>2022-05-10T13:31:34.927Z</time>
      </trkpt>
      <trkpt lat="43.971" lon="6.51161">
        <ele>898</ele>
        <time>2022-05-10T13:31:39.164Z</time>
      </trkpt>
      <trkpt lat="43.971" lon="6.51176">
        <ele>897</ele>
        <time>2022-05-10T13:31:40.516Z</time>
      </trkpt>
      <trkpt lat="43.97084" lon="6.51242">
        <ele>898</ele>
        <time>2022-05-10T13:32:01.500Z</time>
      </trkpt>
      <trkpt lat="43.97091" lon="6.51258">
        <ele>898</ele>
        <time>2022-05-10T13:32:06.111Z</time>
      </trkpt>
      <trkpt lat="43.97082" lon="6.51267">
        <ele>899</ele>
        <time>2022-05-10T13:32:15.116Z</time>
      </trkpt>
      <trkpt lat="43.97069" lon="6.51279">
        <ele>899</ele>
        <time>2022-05-10T13:32:20.455Z</time>
      </trkpt>
      <trkpt lat="43.9704" lon="6.51314">
        <ele>899</ele>
        <time>2022-05-10T13:32:33.598Z</time>
      </trkpt>
      <trkpt lat="43.97013" lon="6.51334">
        <ele>898</ele>
        <time>2022-05-10T13:32:38.328Z</time>
      </trkpt>
      <trkpt lat="43.96984" lon="6.51347">
        <ele>898</ele>
        <time>2022-05-10T13:32:48.754Z</time>
      </trkpt>
      <trkpt lat="43.96967" lon="6.51354">
        <ele>898</ele>
        <time>2022-05-10T13:32:54.820Z</time>
      </trkpt>
      <trkpt lat="43.96953" lon="6.51354">
        <ele>897</ele>
        <time>2022-05-10T13:32:56.574Z</time>
      </trkpt>
      <trkpt lat="43.96933" lon="6.51339">
        <ele>897</ele>
        <time>2022-05-10T13:33:04.350Z</time>
      </trkpt>
      <trkpt lat="43.96892" lon="6.51318">
        <ele>895</ele>
        <time>2022-05-10T13:33:10.309Z</time>
      </trkpt>
      <trkpt lat="43.96866" lon="6.51314">
        <ele>895</ele>
        <time>2022-05-10T13:33:19.259Z</time>
      </trkpt>
      <trkpt lat="43.96841" lon="6.5132">
        <ele>895</ele>
        <time>2022-05-10T13:33:27.939Z</time>
      </trkpt>
      <trkpt lat="43.96814" lon="6.51324">
        <ele>894</ele>
        <time>2022-05-10T13:33:31.966Z</time>
      </trkpt>
      <trkpt lat="43.96796" lon="6.51333">
        <ele>894</ele>
        <time>2022-05-10T13:33:38.511Z</time>
      </trkpt>
      <trkpt lat="43.96779" lon="6.51337">
        <ele>894</ele>
        <time>2022-05-10T13:33:44.411Z</time>
      </trkpt>
      <trkpt lat="43.96757" lon="6.51325">
        <ele>893</ele>
        <time>2022-05-10T13:33:47.737Z</time>
      </trkpt>
      <trkpt lat="43.96731" lon="6.51291">
        <ele>892</ele>
        <time>2022-05-10T13:33:53.533Z</time>
      </trkpt>
      <trkpt lat="43.96712" lon="6.51279">
        <ele>892</ele>
        <time>2022-05-10T13:34:00.674Z</time>
      </trkpt>
      <trkpt lat="43.96703" lon="6.51271">
        <ele>891</ele>
        <time>2022-05-10T13:34:02.012Z</time>
      </trkpt>
      <trkpt lat="43.9668" lon="6.51223">
        <ele>890</ele>
        <time>2022-05-10T13:34:09.045Z</time>
      </trkpt>
      <trkpt lat="43.96672" lon="6.51194">
        <ele>890</ele>
        <time>2022-05-10T13:34:16.693Z</time>
      </trkpt>
      <trkpt lat="43.96669" lon="6.51184">
        <ele>890</ele>
        <time>2022-05-10T13:34:19.361Z</time>
      </trkpt>
      <trkpt lat="43.96635" lon="6.51146">
        <ele>890</ele>
        <time>2022-05-10T13:34:34.290Z</time>
      </trkpt>
      <trkpt lat="43.96632" lon="6.51145">
        <ele>889</ele>
        <time>2022-05-10T13:34:34.677Z</time>
      </trkpt>
      <trkpt lat="43.96625" lon="6.51138">
        <ele>889</ele>
        <time>2022-05-10T13:34:37.628Z</time>
      </trkpt>
      <trkpt lat="43.96562" lon="6.51048">
        <ele>888</ele>
        <time>2022-05-10T13:34:55.551Z</time>
      </trkpt>
      <trkpt lat="43.96541" lon="6.50967">
        <ele>888</ele>
        <time>2022-05-10T13:35:16.753Z</time>
      </trkpt>
      <trkpt lat="43.96527" lon="6.50931">
        <ele>888</ele>
        <time>2022-05-10T13:35:26.830Z</time>
      </trkpt>
      <trkpt lat="43.96515" lon="6.5092">
        <ele>887</ele>
        <time>2022-05-10T13:35:28.631Z</time>
      </trkpt>
      <trkpt lat="43.96488" lon="6.50884">
        <ele>888</ele>
        <time>2022-05-10T13:35:45.584Z</time>
      </trkpt>
      <trkpt lat="43.96462" lon="6.50855">
        <ele>888</ele>
        <time>2022-05-10T13:35:56.992Z</time>
      </trkpt>
      <trkpt lat="43.9645" lon="6.50849">
        <ele>888</ele>
        <time>2022-05-10T13:36:01.356Z</time>
      </trkpt>
      <trkpt lat="43.96424" lon="6.50851">
        <ele>887</ele>
        <time>2022-05-10T13:36:05.159Z</time>
      </trkpt>
      <trkpt lat="43.96406" lon="6.50878">
        <ele>886</ele>
        <time>2022-05-10T13:36:09.052Z</time>
      </trkpt>
      <trkpt lat="43.96297" lon="6.51004">
        <ele>886</ele>
        <time>2022-05-10T13:36:57.567Z</time>
      </trkpt>
      <trkpt lat="43.96288" lon="6.51017">
        <ele>886</ele>
        <time>2022-05-10T13:37:02.009Z</time>
      </trkpt>
      <trkpt lat="43.96282" lon="6.51034">
        <ele>887</ele>
        <time>2022-05-10T13:37:11.637Z</time>
      </trkpt>
      <trkpt lat="43.96278" lon="6.51044">
        <ele>887</ele>
        <time>2022-05-10T13:37:14.455Z</time>
      </trkpt>
      <trkpt lat="43.96237" lon="6.51135">
        <ele>888</ele>
        <time>2022-05-10T13:37:44.450Z</time>
      </trkpt>
      <trkpt lat="43.96192" lon="6.51232">
        <ele>888</ele>
        <time>2022-05-10T13:38:12.870Z</time>
      </trkpt>
      <trkpt lat="43.96163" lon="6.51291">
        <ele>888</ele>
        <time>2022-05-10T13:38:30.465Z</time>
      </trkpt>
      <trkpt lat="43.96157" lon="6.51306">
        <ele>888</ele>
        <time>2022-05-10T13:38:34.692Z</time>
      </trkpt>
      <trkpt lat="43.96154" lon="6.51312">
        <ele>888</ele>
        <time>2022-05-10T13:38:36.491Z</time>
      </trkpt>
      <trkpt lat="43.9615" lon="6.51315">
        <ele>888</ele>
        <time>2022-05-10T13:38:38.046Z</time>
      </trkpt>
      <trkpt lat="43.96143" lon="6.51322">
        <ele>888</ele>
        <time>2022-05-10T13:38:40.997Z</time>
      </trkpt>
      <trkpt lat="43.96139" lon="6.51323">
        <ele>887</ele>
        <time>2022-05-10T13:38:41.506Z</time>
      </trkpt>
      <trkpt lat="43.96134" lon="6.51326">
        <ele>887</ele>
        <time>2022-05-10T13:38:43.370Z</time>
      </trkpt>
      <trkpt lat="43.96116" lon="6.51327">
        <ele>887</ele>
        <time>2022-05-10T13:38:49.533Z</time>
      </trkpt>
      <trkpt lat="43.96103" lon="6.5132">
        <ele>887</ele>
        <time>2022-05-10T13:38:54.303Z</time>
      </trkpt>
      <trkpt lat="43.96093" lon="6.51304">
        <ele>887</ele>
        <time>2022-05-10T13:38:59.522Z</time>
      </trkpt>
      <trkpt lat="43.96093" lon="6.51324">
        <ele>886</ele>
        <time>2022-05-10T13:39:01.326Z</time>
      </trkpt>
      <trkpt lat="43.96096" lon="6.51344">
        <ele>886</ele>
        <time>2022-05-10T13:39:06.357Z</time>
      </trkpt>
      <trkpt lat="43.96106" lon="6.5136">
        <ele>886</ele>
        <time>2022-05-10T13:39:11.576Z</time>
      </trkpt>
      <trkpt lat="43.96119" lon="6.51368">
        <ele>886</ele>
        <time>2022-05-10T13:39:16.440Z</time>
      </trkpt>
      <trkpt lat="43.96131" lon="6.51366">
        <ele>887</ele>
        <time>2022-05-10T13:39:25.646Z</time>
      </trkpt>
      <trkpt lat="43.96144" lon="6.51362">
        <ele>887</ele>
        <time>2022-05-10T13:39:30.201Z</time>
      </trkpt>
      <trkpt lat="43.96147" lon="6.51365">
        <ele>887</ele>
        <time>2022-05-10T13:39:31.466Z</time>
      </trkpt>
      <trkpt lat="43.96149" lon="6.51371">
        <ele>887</ele>
        <time>2022-05-10T13:39:33.095Z</time>
      </trkpt>
      <trkpt lat="43.96163" lon="6.51433">
        <ele>890</ele>
        <time>2022-05-10T13:40:03.934Z</time>
      </trkpt>
      <trkpt lat="43.96161" lon="6.5144">
        <ele>891</ele>
        <time>2022-05-10T13:40:11.088Z</time>
      </trkpt>
      <trkpt lat="43.96157" lon="6.51446">
        <ele>892</ele>
        <time>2022-05-10T13:40:18.857Z</time>
      </trkpt>
      <trkpt lat="43.96143" lon="6.51457">
        <ele>893</ele>
        <time>2022-05-10T13:40:29.313Z</time>
      </trkpt>
      <trkpt lat="43.96079" lon="6.51498">
        <ele>893</ele>
        <time>2022-05-10T13:40:53.427Z</time>
      </trkpt>
      <trkpt lat="43.96009" lon="6.51551">
        <ele>896</ele>
        <time>2022-05-10T13:41:35.051Z</time>
      </trkpt>
      <trkpt lat="43.95996" lon="6.51567">
        <ele>898</ele>
        <time>2022-05-10T13:41:53.181Z</time>
      </trkpt>
      <trkpt lat="43.95965" lon="6.51587">
        <ele>901</ele>
        <time>2022-05-10T13:42:20.355Z</time>
      </trkpt>
      <trkpt lat="43.95954" lon="6.5159">
        <ele>901</ele>
        <time>2022-05-10T13:42:24.190Z</time>
      </trkpt>
      <trkpt lat="43.9594" lon="6.51594">
        <ele>902</ele>
        <time>2022-05-10T13:42:34.028Z</time>
      </trkpt>
      <trkpt lat="43.95899" lon="6.51581">
        <ele>899</ele>
        <time>2022-05-10T13:42:39.296Z</time>
      </trkpt>
      <trkpt lat="43.95887" lon="6.51587">
        <ele>900</ele>
        <time>2022-05-10T13:42:48.671Z</time>
      </trkpt>
      <trkpt lat="43.95865" lon="6.51614">
        <ele>902</ele>
        <time>2022-05-10T13:43:08.601Z</time>
      </trkpt>
      <trkpt lat="43.95852" lon="6.51616">
        <ele>902</ele>
        <time>2022-05-10T13:43:13.076Z</time>
      </trkpt>
      <trkpt lat="43.95813" lon="6.51605">
        <ele>901</ele>
        <time>2022-05-10T13:43:19.742Z</time>
      </trkpt>
      <trkpt lat="43.95784" lon="6.51607">
        <ele>903</ele>
        <time>2022-05-10T13:43:39.565Z</time>
      </trkpt>
      <trkpt lat="43.95748" lon="6.51604">
        <ele>904</ele>
        <time>2022-05-10T13:43:56.106Z</time>
      </trkpt>
      <trkpt lat="43.95643" lon="6.51609">
        <ele>901</ele>
        <time>2022-05-10T13:44:13.061Z</time>
      </trkpt>
      <trkpt lat="43.95627" lon="6.51612">
        <ele>900</ele>
        <time>2022-05-10T13:44:14.982Z</time>
      </trkpt>
      <trkpt lat="43.9562" lon="6.51624">
        <ele>901</ele>
        <time>2022-05-10T13:44:23.992Z</time>
      </trkpt>
      <trkpt lat="43.95614" lon="6.51637">
        <ele>901</ele>
        <time>2022-05-10T13:44:27.795Z</time>
      </trkpt>
      <trkpt lat="43.95612" lon="6.51657">
        <ele>903</ele>
        <time>2022-05-10T13:44:46.978Z</time>
      </trkpt>
      <trkpt lat="43.95619" lon="6.517">
        <ele>903</ele>
        <time>2022-05-10T13:44:57.837Z</time>
      </trkpt>
      <trkpt lat="43.95615" lon="6.51713">
        <ele>902</ele>
        <time>2022-05-10T13:44:59.112Z</time>
      </trkpt>
      <trkpt lat="43.95609" lon="6.51722">
        <ele>901</ele>
        <time>2022-05-10T13:45:00.218Z</time>
      </trkpt>
      <trkpt lat="43.95592" lon="6.51724">
        <ele>900</ele>
        <time>2022-05-10T13:45:02.303Z</time>
      </trkpt>
      <trkpt lat="43.95577" lon="6.5171">
        <ele>899</ele>
        <time>2022-05-10T13:45:04.572Z</time>
      </trkpt>
      <trkpt lat="43.95555" lon="6.51711">
        <ele>896</ele>
        <time>2022-05-10T13:45:07.329Z</time>
      </trkpt>
      <trkpt lat="43.9554" lon="6.51724">
        <ele>894</ele>
        <time>2022-05-10T13:45:09.544Z</time>
      </trkpt>
      <trkpt lat="43.95496" lon="6.51787">
        <ele>890</ele>
        <time>2022-05-10T13:45:16.985Z</time>
      </trkpt>
      <trkpt lat="43.95486" lon="6.51831">
        <ele>892</ele>
        <time>2022-05-10T13:45:38.282Z</time>
      </trkpt>
      <trkpt lat="43.95477" lon="6.51872">
        <ele>895</ele>
        <time>2022-05-10T13:46:05.014Z</time>
      </trkpt>
      <trkpt lat="43.95473" lon="6.51882">
        <ele>896</ele>
        <time>2022-05-10T13:46:14.275Z</time>
      </trkpt>
      <trkpt lat="43.95466" lon="6.51898">
        <ele>897</ele>
        <time>2022-05-10T13:46:23.858Z</time>
      </trkpt>
      <trkpt lat="43.95433" lon="6.51947">
        <ele>899</ele>
        <time>2022-05-10T13:46:50.482Z</time>
      </trkpt>
      <trkpt lat="43.9542" lon="6.52008">
        <ele>898</ele>
        <time>2022-05-10T13:46:58.443Z</time>
      </trkpt>
      <trkpt lat="43.95412" lon="6.5204">
        <ele>900</ele>
        <time>2022-05-10T13:47:16.905Z</time>
      </trkpt>
      <trkpt lat="43.95391" lon="6.52094">
        <ele>904</ele>
        <time>2022-05-10T13:47:52.897Z</time>
      </trkpt>
      <trkpt lat="43.95373" lon="6.52157">
        <ele>905</ele>
        <time>2022-05-10T13:48:13.450Z</time>
      </trkpt>
      <trkpt lat="43.95366" lon="6.52172">
        <ele>905</ele>
        <time>2022-05-10T13:48:17.853Z</time>
      </trkpt>
      <trkpt lat="43.95362" lon="6.52172">
        <ele>905</ele>
        <time>2022-05-10T13:48:19.222Z</time>
      </trkpt>
      <trkpt lat="43.9536" lon="6.52168">
        <ele>906</ele>
        <time>2022-05-10T13:48:23.849Z</time>
      </trkpt>
      <trkpt lat="43.95361" lon="6.52112">
        <ele>908</ele>
        <time>2022-05-10T13:48:47.911Z</time>
      </trkpt>
      <trkpt lat="43.95345" lon="6.52032">
        <ele>912</ele>
        <time>2022-05-10T13:49:28.130Z</time>
      </trkpt>
      <trkpt lat="43.95341" lon="6.51995">
        <ele>914</ele>
        <time>2022-05-10T13:49:47.289Z</time>
      </trkpt>
      <trkpt lat="43.95322" lon="6.51902">
        <ele>920</ele>
        <time>2022-05-10T13:50:41.877Z</time>
      </trkpt>
      <trkpt lat="43.95316" lon="6.5189">
        <ele>921</ele>
        <time>2022-05-10T13:50:50.807Z</time>
      </trkpt>
      <trkpt lat="43.9531" lon="6.51844">
        <ele>925</ele>
        <time>2022-05-10T13:51:27.491Z</time>
      </trkpt>
      <trkpt lat="43.95304" lon="6.51827">
        <ele>927</ele>
        <time>2022-05-10T13:51:45.479Z</time>
      </trkpt>
      <trkpt lat="43.95301" lon="6.51821">
        <ele>928</ele>
        <time>2022-05-10T13:51:52.419Z</time>
      </trkpt>
      <trkpt lat="43.95294" lon="6.51816">
        <ele>929</ele>
        <time>2022-05-10T13:52:01.929Z</time>
      </trkpt>
      <trkpt lat="43.95262" lon="6.51811">
        <ele>935</ele>
        <time>2022-05-10T13:52:44.426Z</time>
      </trkpt>
      <trkpt lat="43.95217" lon="6.51796">
        <ele>936</ele>
        <time>2022-05-10T13:53:04.167Z</time>
      </trkpt>
      <trkpt lat="43.95201" lon="6.5178">
        <ele>939</ele>
        <time>2022-05-10T13:53:30.185Z</time>
      </trkpt>
      <trkpt lat="43.95183" lon="6.51749">
        <ele>947</ele>
        <time>2022-05-10T13:54:08.024Z</time>
      </trkpt>
      <trkpt lat="43.95162" lon="6.51735">
        <ele>946</ele>
        <time>2022-05-10T13:54:11.284Z</time>
      </trkpt>
      <trkpt lat="43.95183" lon="6.51749">
        <ele>947</ele>
        <time>2022-05-10T13:54:24.418Z</time>
      </trkpt>
      <trkpt lat="43.95201" lon="6.5178">
        <ele>939</ele>
        <time>2022-05-10T13:54:28.010Z</time>
      </trkpt>
      <trkpt lat="43.95217" lon="6.51796">
        <ele>936</ele>
        <time>2022-05-10T13:54:30.480Z</time>
      </trkpt>
      <trkpt lat="43.95262" lon="6.51811">
        <ele>935</ele>
        <time>2022-05-10T13:54:38.545Z</time>
      </trkpt>
      <trkpt lat="43.95294" lon="6.51816">
        <ele>929</ele>
        <time>2022-05-10T13:54:42.579Z</time>
      </trkpt>
      <trkpt lat="43.95301" lon="6.51821">
        <ele>928</ele>
        <time>2022-05-10T13:54:43.565Z</time>
      </trkpt>
      <trkpt lat="43.95304" lon="6.51827">
        <ele>927</ele>
        <time>2022-05-10T13:54:44.224Z</time>
      </trkpt>
      <trkpt lat="43.9531" lon="6.51844">
        <ele>925</ele>
        <time>2022-05-10T13:54:45.932Z</time>
      </trkpt>
      <trkpt lat="43.95316" lon="6.5189">
        <ele>921</ele>
        <time>2022-05-10T13:54:50.148Z</time>
      </trkpt>
      <trkpt lat="43.95322" lon="6.51902">
        <ele>920</ele>
        <time>2022-05-10T13:54:51.465Z</time>
      </trkpt>
      <trkpt lat="43.95341" lon="6.51995">
        <ele>914</ele>
        <time>2022-05-10T13:55:00.184Z</time>
      </trkpt>
      <trkpt lat="43.95345" lon="6.52032">
        <ele>912</ele>
        <time>2022-05-10T13:55:03.558Z</time>
      </trkpt>
      <trkpt lat="43.95361" lon="6.52112">
        <ele>908</ele>
        <time>2022-05-10T13:55:11.046Z</time>
      </trkpt>
      <trkpt lat="43.9536" lon="6.52168">
        <ele>906</ele>
        <time>2022-05-10T13:55:16.362Z</time>
      </trkpt>
      <trkpt lat="43.95362" lon="6.52172">
        <ele>905</ele>
        <time>2022-05-10T13:55:16.801Z</time>
      </trkpt>
      <trkpt lat="43.95366" lon="6.52172">
        <ele>905</ele>
        <time>2022-05-10T13:55:18.169Z</time>
      </trkpt>
      <trkpt lat="43.95348" lon="6.52214">
        <ele>902</ele>
        <time>2022-05-10T13:55:22.577Z</time>
      </trkpt>
      <trkpt lat="43.95324" lon="6.52249">
        <ele>898</ele>
        <time>2022-05-10T13:55:26.937Z</time>
      </trkpt>
      <trkpt lat="43.95307" lon="6.52266">
        <ele>899</ele>
        <time>2022-05-10T13:55:39.286Z</time>
      </trkpt>
      <trkpt lat="43.95299" lon="6.52279">
        <ele>900</ele>
        <time>2022-05-10T13:55:48.546Z</time>
      </trkpt>
      <trkpt lat="43.95296" lon="6.52292">
        <ele>901</ele>
        <time>2022-05-10T13:55:57.442Z</time>
      </trkpt>
      <trkpt lat="43.95298" lon="6.52345">
        <ele>904</ele>
        <time>2022-05-10T13:56:25.553Z</time>
      </trkpt>
      <trkpt lat="43.95305" lon="6.52389">
        <ele>907</ele>
        <time>2022-05-10T13:56:52.445Z</time>
      </trkpt>
      <trkpt lat="43.95289" lon="6.52421">
        <ele>912</ele>
        <time>2022-05-10T13:57:29.461Z</time>
      </trkpt>
      <trkpt lat="43.95292" lon="6.52463">
        <ele>913</ele>
        <time>2022-05-10T13:57:44.344Z</time>
      </trkpt>
      <trkpt lat="43.95283" lon="6.52506">
        <ele>916</ele>
        <time>2022-05-10T13:58:11.210Z</time>
      </trkpt>
      <trkpt lat="43.95262" lon="6.52538">
        <ele>919</ele>
        <time>2022-05-10T13:58:37.965Z</time>
      </trkpt>
      <trkpt lat="43.95219" lon="6.52591">
        <ele>926</ele>
        <time>2022-05-10T13:59:42.884Z</time>
      </trkpt>
      <trkpt lat="43.95206" lon="6.52601">
        <ele>928</ele>
        <time>2022-05-10T14:00:02.495Z</time>
      </trkpt>
      <trkpt lat="43.95201" lon="6.52615">
        <ele>929</ele>
        <time>2022-05-10T14:00:11.527Z</time>
      </trkpt>
      <trkpt lat="43.95199" lon="6.52635">
        <ele>929</ele>
        <time>2022-05-10T14:00:16.501Z</time>
      </trkpt>
      <trkpt lat="43.9519" lon="6.5265">
        <ele>931</ele>
        <time>2022-05-10T14:00:35.053Z</time>
      </trkpt>
      <trkpt lat="43.9517" lon="6.52675">
        <ele>935</ele>
        <time>2022-05-10T14:01:10.561Z</time>
      </trkpt>
      <trkpt lat="43.95163" lon="6.52718">
        <ele>933</ele>
        <time>2022-05-10T14:01:14.307Z</time>
      </trkpt>
      <trkpt lat="43.95145" lon="6.5275">
        <ele>935</ele>
        <time>2022-05-10T14:01:34.197Z</time>
      </trkpt>
      <trkpt lat="43.95091" lon="6.52817">
        <ele>947</ele>
        <time>2022-05-10T14:03:09.752Z</time>
      </trkpt>
      <trkpt lat="43.95083" lon="6.52786">
        <ele>951</ele>
        <time>2022-05-10T14:03:41.040Z</time>
      </trkpt>
      <trkpt lat="43.95078" lon="6.52756">
        <ele>953</ele>
        <time>2022-05-10T14:03:59.048Z</time>
      </trkpt>
      <trkpt lat="43.95073" lon="6.52715">
        <ele>957</ele>
        <time>2022-05-10T14:04:38.558Z</time>
      </trkpt>
      <trkpt lat="43.95068" lon="6.52689">
        <ele>960</ele>
        <time>2022-05-10T14:05:04.127Z</time>
      </trkpt>
      <trkpt lat="43.95067" lon="6.52675">
        <ele>961</ele>
        <time>2022-05-10T14:05:13.028Z</time>
      </trkpt>
      <trkpt lat="43.9507" lon="6.5264">
        <ele>962</ele>
        <time>2022-05-10T14:05:26.615Z</time>
      </trkpt>
      <trkpt lat="43.95055" lon="6.52621">
        <ele>968</ele>
        <time>2022-05-10T14:05:53.406Z</time>
      </trkpt>
      <trkpt lat="43.95055" lon="6.52593">
        <ele>969</ele>
        <time>2022-05-10T14:06:05.435Z</time>
      </trkpt>
      <trkpt lat="43.9505" lon="6.52525">
        <ele>974</ele>
        <time>2022-05-10T14:06:49.915Z</time>
      </trkpt>
      <trkpt lat="43.95054" lon="6.52491">
        <ele>975</ele>
        <time>2022-05-10T14:07:03.371Z</time>
      </trkpt>
      <trkpt lat="43.95051" lon="6.52479">
        <ele>975</ele>
        <time>2022-05-10T14:07:06.500Z</time>
      </trkpt>
      <trkpt lat="43.95036" lon="6.5246">
        <ele>979</ele>
        <time>2022-05-10T14:07:33.291Z</time>
      </trkpt>
      <trkpt lat="43.95013" lon="6.52386">
        <ele>985</ele>
        <time>2022-05-10T14:08:26.689Z</time>
      </trkpt>
      <trkpt lat="43.9501" lon="6.52349">
        <ele>986</ele>
        <time>2022-05-10T14:08:40.622Z</time>
      </trkpt>
      <trkpt lat="43.95005" lon="6.52326">
        <ele>988</ele>
        <time>2022-05-10T14:08:58.776Z</time>
      </trkpt>
      <trkpt lat="43.94997" lon="6.52306">
        <ele>990</ele>
        <time>2022-05-10T14:09:17.298Z</time>
      </trkpt>
      <trkpt lat="43.94978" lon="6.52286">
        <ele>995</ele>
        <time>2022-05-10T14:09:48.760Z</time>
      </trkpt>
      <trkpt lat="43.94966" lon="6.52264">
        <ele>998</ele>
        <time>2022-05-10T14:10:14.984Z</time>
      </trkpt>
      <trkpt lat="43.94955" lon="6.52235">
        <ele>999</ele>
        <time>2022-05-10T14:10:28.180Z</time>
      </trkpt>
      <trkpt lat="43.94935" lon="6.52191">
        <ele>998</ele>
        <time>2022-05-10T14:10:34.349Z</time>
      </trkpt>
      <trkpt lat="43.94935" lon="6.52172">
        <ele>995</ele>
        <time>2022-05-10T14:10:36.062Z</time>
      </trkpt>
      <trkpt lat="43.94925" lon="6.52151">
        <ele>993</ele>
        <time>2022-05-10T14:10:38.333Z</time>
      </trkpt>
      <trkpt lat="43.94916" lon="6.52149">
        <ele>994</ele>
        <time>2022-05-10T14:10:47.291Z</time>
      </trkpt>
      <trkpt lat="43.94911" lon="6.52157">
        <ele>996</ele>
        <time>2022-05-10T14:10:57.356Z</time>
      </trkpt>
      <trkpt lat="43.94914" lon="6.52207">
        <ele>1006</ele>
        <time>2022-05-10T14:11:45.028Z</time>
      </trkpt>
      <trkpt lat="43.94922" lon="6.52232">
        <ele>1009</ele>
        <time>2022-05-10T14:12:11.022Z</time>
      </trkpt>
      <trkpt lat="43.94925" lon="6.5226">
        <ele>1011</ele>
        <time>2022-05-10T14:12:28.831Z</time>
      </trkpt>
      <trkpt lat="43.94931" lon="6.52284">
        <ele>1010</ele>
        <time>2022-05-10T14:12:31.140Z</time>
      </trkpt>
      <trkpt lat="43.94932" lon="6.52306">
        <ele>1010</ele>
        <time>2022-05-10T14:12:36.570Z</time>
      </trkpt>
      <trkpt lat="43.94927" lon="6.52348">
        <ele>1013</ele>
        <time>2022-05-10T14:13:03.289Z</time>
      </trkpt>
      <trkpt lat="43.94891" lon="6.52467">
        <ele>1026</ele>
        <time>2022-05-10T14:15:05.931Z</time>
      </trkpt>
      <trkpt lat="43.94876" lon="6.52475">
        <ele>1030</ele>
        <time>2022-05-10T14:15:27.136Z</time>
      </trkpt>
      <trkpt lat="43.9487" lon="6.52487">
        <ele>1032</ele>
        <time>2022-05-10T14:15:41.018Z</time>
      </trkpt>
      <trkpt lat="43.94866" lon="6.52512">
        <ele>1032</ele>
        <time>2022-05-10T14:15:47.326Z</time>
      </trkpt>
      <trkpt lat="43.94865" lon="6.52548">
        <ele>1030</ele>
        <time>2022-05-10T14:15:50.576Z</time>
      </trkpt>
      <trkpt lat="43.94834" lon="6.52612">
        <ele>1035</ele>
        <time>2022-05-10T14:16:35.614Z</time>
      </trkpt>
      <trkpt lat="43.94792" lon="6.52694">
        <ele>1044</ele>
        <time>2022-05-10T14:17:59.992Z</time>
      </trkpt>
      <trkpt lat="43.94744" lon="6.52797">
        <ele>1055</ele>
        <time>2022-05-10T14:19:43.271Z</time>
      </trkpt>
      <trkpt lat="43.94724" lon="6.52832">
        <ele>1058</ele>
        <time>2022-05-10T14:20:10.129Z</time>
      </trkpt>
      <trkpt lat="43.94649" lon="6.52897">
        <ele>1072</ele>
        <time>2022-05-10T14:22:06.796Z</time>
      </trkpt>
      <trkpt lat="43.9464" lon="6.52907">
        <ele>1073</ele>
        <time>2022-05-10T14:22:15.879Z</time>
      </trkpt>
      <trkpt lat="43.94635" lon="6.52927">
        <ele>1071</ele>
        <time>2022-05-10T14:22:17.789Z</time>
      </trkpt>
      <trkpt lat="43.94625" lon="6.52938">
        <ele>1072</ele>
        <time>2022-05-10T14:22:27.165Z</time>
      </trkpt>
      <trkpt lat="43.94605" lon="6.52938">
        <ele>1078</ele>
        <time>2022-05-10T14:22:53.559Z</time>
      </trkpt>
      <trkpt lat="43.94588" lon="6.52942">
        <ele>1082</ele>
        <time>2022-05-10T14:23:16.314Z</time>
      </trkpt>
      <trkpt lat="43.94556" lon="6.52963">
        <ele>1082</ele>
        <time>2022-05-10T14:23:28.423Z</time>
      </trkpt>
      <trkpt lat="43.9453" lon="6.52968">
        <ele>1084</ele>
        <time>2022-05-10T14:23:47.380Z</time>
      </trkpt>
      <trkpt lat="43.94511" lon="6.52979">
        <ele>1086</ele>
        <time>2022-05-10T14:24:05.202Z</time>
      </trkpt>
      <trkpt lat="43.94489" lon="6.53006">
        <ele>1085</ele>
        <time>2022-05-10T14:24:09.677Z</time>
      </trkpt>
      <trkpt lat="43.94455" lon="6.53031">
        <ele>1083</ele>
        <time>2022-05-10T14:24:14.645Z</time>
      </trkpt>
      <trkpt lat="43.94385" lon="6.53117">
        <ele>1089</ele>
        <time>2022-05-10T14:25:16.293Z</time>
      </trkpt>
      <trkpt lat="43.94351" lon="6.53167">
        <ele>1096</ele>
        <time>2022-05-10T14:26:21.643Z</time>
      </trkpt>
      <trkpt lat="43.94345" lon="6.53179">
        <ele>1096</ele>
        <time>2022-05-10T14:26:25.242Z</time>
      </trkpt>
      <trkpt lat="43.94332" lon="6.53179">
        <ele>1097</ele>
        <time>2022-05-10T14:26:34.685Z</time>
      </trkpt>
      <trkpt lat="43.94296" lon="6.53233">
        <ele>1099</ele>
        <time>2022-05-10T14:27:02.395Z</time>
      </trkpt>
      <trkpt lat="43.94261" lon="6.53279">
        <ele>1107</ele>
        <time>2022-05-10T14:28:05.989Z</time>
      </trkpt>
      <trkpt lat="43.94229" lon="6.53328">
        <ele>1112</ele>
        <time>2022-05-10T14:28:50.527Z</time>
      </trkpt>
      <trkpt lat="43.9421" lon="6.53365">
        <ele>1109</ele>
        <time>2022-05-10T14:28:54.627Z</time>
      </trkpt>
      <trkpt lat="43.94229" lon="6.53328">
        <ele>1112</ele>
        <time>2022-05-10T14:29:21.558Z</time>
      </trkpt>
      <trkpt lat="43.94261" lon="6.53279">
        <ele>1107</ele>
        <time>2022-05-10T14:29:27.525Z</time>
      </trkpt>
      <trkpt lat="43.94296" lon="6.53233">
        <ele>1099</ele>
        <time>2022-05-10T14:29:33.562Z</time>
      </trkpt>
      <trkpt lat="43.94332" lon="6.53179">
        <ele>1097</ele>
        <time>2022-05-10T14:29:41.350Z</time>
      </trkpt>
      <trkpt lat="43.94345" lon="6.53179">
        <ele>1096</ele>
        <time>2022-05-10T14:29:42.979Z</time>
      </trkpt>
      <trkpt lat="43.94351" lon="6.53167">
        <ele>1096</ele>
        <time>2022-05-10T14:29:46.578Z</time>
      </trkpt>
      <trkpt lat="43.94385" lon="6.53117">
        <ele>1089</ele>
        <time>2022-05-10T14:29:52.781Z</time>
      </trkpt>
      <trkpt lat="43.94455" lon="6.53031">
        <ele>1083</ele>
        <time>2022-05-10T14:30:03.711Z</time>
      </trkpt>
      <trkpt lat="43.94489" lon="6.53006">
        <ele>1085</ele>
        <time>2022-05-10T14:30:27.030Z</time>
      </trkpt>
      <trkpt lat="43.94511" lon="6.52979">
        <ele>1086</ele>
        <time>2022-05-10T14:30:41.630Z</time>
      </trkpt>
      <trkpt lat="43.9453" lon="6.52968">
        <ele>1084</ele>
        <time>2022-05-10T14:30:44.209Z</time>
      </trkpt>
      <trkpt lat="43.94556" lon="6.52963">
        <ele>1082</ele>
        <time>2022-05-10T14:30:47.497Z</time>
      </trkpt>
      <trkpt lat="43.94588" lon="6.52942">
        <ele>1082</ele>
        <time>2022-05-10T14:30:59.606Z</time>
      </trkpt>
      <trkpt lat="43.94605" lon="6.52938">
        <ele>1078</ele>
        <time>2022-05-10T14:31:01.766Z</time>
      </trkpt>
      <trkpt lat="43.94625" lon="6.52938">
        <ele>1072</ele>
        <time>2022-05-10T14:31:04.272Z</time>
      </trkpt>
      <trkpt lat="43.94635" lon="6.52927">
        <ele>1071</ele>
        <time>2022-05-10T14:31:05.870Z</time>
      </trkpt>
      <trkpt lat="43.9464" lon="6.52907">
        <ele>1073</ele>
        <time>2022-05-10T14:31:25.359Z</time>
      </trkpt>
      <trkpt lat="43.94649" lon="6.52897">
        <ele>1072</ele>
        <time>2022-05-10T14:31:26.803Z</time>
      </trkpt>
      <trkpt lat="43.94696" lon="6.52857">
        <ele>1063</ele>
        <time>2022-05-10T14:31:33.708Z</time>
      </trkpt>
      <trkpt lat="43.94681" lon="6.52885">
        <ele>1064</ele>
        <time>2022-05-10T14:31:47.237Z</time>
      </trkpt>
      <trkpt lat="43.94672" lon="6.52913">
        <ele>1063</ele>
        <time>2022-05-10T14:31:50.260Z</time>
      </trkpt>
      <trkpt lat="43.94672" lon="6.52942">
        <ele>1057</ele>
        <time>2022-05-10T14:31:52.876Z</time>
      </trkpt>
      <trkpt lat="43.9467" lon="6.52957">
        <ele>1054</ele>
        <time>2022-05-10T14:31:54.252Z</time>
      </trkpt>
      <trkpt lat="43.94652" lon="6.52965">
        <ele>1058</ele>
        <time>2022-05-10T14:32:19.193Z</time>
      </trkpt>
      <trkpt lat="43.94638" lon="6.52976">
        <ele>1060</ele>
        <time>2022-05-10T14:32:37.955Z</time>
      </trkpt>
      <trkpt lat="43.94627" lon="6.53">
        <ele>1058</ele>
        <time>2022-05-10T14:32:40.521Z</time>
      </trkpt>
      <trkpt lat="43.94606" lon="6.53021">
        <ele>1060</ele>
        <time>2022-05-10T14:32:59.373Z</time>
      </trkpt>
      <trkpt lat="43.94594" lon="6.53041">
        <ele>1059</ele>
        <time>2022-05-10T14:33:01.765Z</time>
      </trkpt>
      <trkpt lat="43.94587" lon="6.53145">
        <ele>1045</ele>
        <time>2022-05-10T14:33:11.187Z</time>
      </trkpt>
      <trkpt lat="43.94584" lon="6.5321">
        <ele>1042</ele>
        <time>2022-05-10T14:33:16.681Z</time>
      </trkpt>
      <trkpt lat="43.94583" lon="6.53288">
        <ele>1037</ele>
        <time>2022-05-10T14:33:23.717Z</time>
      </trkpt>
      <trkpt lat="43.94586" lon="6.53344">
        <ele>1033</ele>
        <time>2022-05-10T14:33:28.782Z</time>
      </trkpt>
      <trkpt lat="43.94594" lon="6.53411">
        <ele>1027</ele>
        <time>2022-05-10T14:33:34.907Z</time>
      </trkpt>
      <trkpt lat="43.94599" lon="6.53412">
        <ele>1027</ele>
        <time>2022-05-10T14:33:36.636Z</time>
      </trkpt>
      <trkpt lat="43.94598" lon="6.53435">
        <ele>1024</ele>
        <time>2022-05-10T14:33:38.714Z</time>
      </trkpt>
      <trkpt lat="43.94574" lon="6.53488">
        <ele>1021</ele>
        <time>2022-05-10T14:33:43.892Z</time>
      </trkpt>
      <trkpt lat="43.94552" lon="6.53498">
        <ele>1023</ele>
        <time>2022-05-10T14:34:02.078Z</time>
      </trkpt>
      <trkpt lat="43.94531" lon="6.53503">
        <ele>1026</ele>
        <time>2022-05-10T14:34:30.196Z</time>
      </trkpt>
      <trkpt lat="43.94523" lon="6.53509">
        <ele>1026</ele>
        <time>2022-05-10T14:34:33.307Z</time>
      </trkpt>
      <trkpt lat="43.94523" lon="6.5352">
        <ele>1024</ele>
        <time>2022-05-10T14:34:34.299Z</time>
      </trkpt>
      <trkpt lat="43.9453" lon="6.53537">
        <ele>1020</ele>
        <time>2022-05-10T14:34:36.066Z</time>
      </trkpt>
      <trkpt lat="43.94529" lon="6.53556">
        <ele>1018</ele>
        <time>2022-05-10T14:34:37.784Z</time>
      </trkpt>
      <trkpt lat="43.94516" lon="6.53626">
        <ele>1010</ele>
        <time>2022-05-10T14:34:44.304Z</time>
      </trkpt>
      <trkpt lat="43.94516" lon="6.5365">
        <ele>1007</ele>
        <time>2022-05-10T14:34:46.469Z</time>
      </trkpt>
      <trkpt lat="43.94522" lon="6.53675">
        <ele>1002</ele>
        <time>2022-05-10T14:34:48.846Z</time>
      </trkpt>
      <trkpt lat="43.94526" lon="6.53763">
        <ele>988</ele>
        <time>2022-05-10T14:34:56.799Z</time>
      </trkpt>
      <trkpt lat="43.94524" lon="6.53813">
        <ele>983</ele>
        <time>2022-05-10T14:35:01.316Z</time>
      </trkpt>
      <trkpt lat="43.94514" lon="6.53844">
        <ele>980</ele>
        <time>2022-05-10T14:35:04.380Z</time>
      </trkpt>
      <trkpt lat="43.94498" lon="6.53862">
        <ele>980</ele>
        <time>2022-05-10T14:35:11.425Z</time>
      </trkpt>
      <trkpt lat="43.94491" lon="6.53877">
        <ele>979</ele>
        <time>2022-05-10T14:35:13.037Z</time>
      </trkpt>
      <trkpt lat="43.94487" lon="6.53957">
        <ele>966</ele>
        <time>2022-05-10T14:35:20.270Z</time>
      </trkpt>
      <trkpt lat="43.94473" lon="6.54026">
        <ele>956</ele>
        <time>2022-05-10T14:35:26.736Z</time>
      </trkpt>
      <trkpt lat="43.94466" lon="6.54046">
        <ele>953</ele>
        <time>2022-05-10T14:35:28.742Z</time>
      </trkpt>
      <trkpt lat="43.94444" lon="6.5407">
        <ele>953</ele>
        <time>2022-05-10T14:35:38.313Z</time>
      </trkpt>
      <trkpt lat="43.94433" lon="6.54094">
        <ele>951</ele>
        <time>2022-05-10T14:35:40.879Z</time>
      </trkpt>
      <trkpt lat="43.94415" lon="6.5412">
        <ele>948</ele>
        <time>2022-05-10T14:35:44.133Z</time>
      </trkpt>
      <trkpt lat="43.944" lon="6.5416">
        <ele>941</ele>
        <time>2022-05-10T14:35:48.201Z</time>
      </trkpt>
      <trkpt lat="43.94399" lon="6.54201">
        <ele>934</ele>
        <time>2022-05-10T14:35:51.901Z</time>
      </trkpt>
      <trkpt lat="43.94382" lon="6.54225">
        <ele>930</ele>
        <time>2022-05-10T14:35:54.938Z</time>
      </trkpt>
      <trkpt lat="43.94368" lon="6.54236">
        <ele>928</ele>
        <time>2022-05-10T14:35:56.953Z</time>
      </trkpt>
      <trkpt lat="43.94322" lon="6.5423">
        <ele>927</ele>
        <time>2022-05-10T14:36:05.002Z</time>
      </trkpt>
      <trkpt lat="43.9429" lon="6.54237">
        <ele>926</ele>
        <time>2022-05-10T14:36:10.104Z</time>
      </trkpt>
      <trkpt lat="43.94259" lon="6.54239">
        <ele>927</ele>
        <time>2022-05-10T14:36:25.168Z</time>
      </trkpt>
      <trkpt lat="43.94181" lon="6.5423">
        <ele>915</ele>
        <time>2022-05-10T14:36:34.973Z</time>
      </trkpt>
      <trkpt lat="43.94138" lon="6.54229">
        <ele>907</ele>
        <time>2022-05-10T14:36:40.360Z</time>
      </trkpt>
      <trkpt lat="43.9413" lon="6.54231">
        <ele>906</ele>
        <time>2022-05-10T14:36:41.378Z</time>
      </trkpt>
      <trkpt lat="43.94132" lon="6.54267">
        <ele>907</ele>
        <time>2022-05-10T14:36:55.113Z</time>
      </trkpt>
      <trkpt lat="43.9413" lon="6.5449">
        <ele>916</ele>
        <time>2022-05-10T14:38:35.147Z</time>
      </trkpt>
      <trkpt lat="43.94133" lon="6.54504">
        <ele>916</ele>
        <time>2022-05-10T14:38:38.745Z</time>
      </trkpt>
      <trkpt lat="43.94143" lon="6.54523">
        <ele>917</ele>
        <time>2022-05-10T14:38:49.520Z</time>
      </trkpt>
      <trkpt lat="43.94146" lon="6.54535">
        <ele>917</ele>
        <time>2022-05-10T14:38:52.649Z</time>
      </trkpt>
      <trkpt lat="43.94145" lon="6.54551">
        <ele>915</ele>
        <time>2022-05-10T14:38:54.098Z</time>
      </trkpt>
      <trkpt lat="43.94133" lon="6.54594">
        <ele>913</ele>
        <time>2022-05-10T14:38:58.104Z</time>
      </trkpt>
      <trkpt lat="43.94107" lon="6.54657">
        <ele>916</ele>
        <time>2022-05-10T14:39:30.973Z</time>
      </trkpt>
      <trkpt lat="43.94093" lon="6.54739">
        <ele>922</ele>
        <time>2022-05-10T14:40:24.381Z</time>
      </trkpt>
      <trkpt lat="43.94006" lon="6.54962">
        <ele>924</ele>
        <time>2022-05-10T14:41:33.833Z</time>
      </trkpt>
      <trkpt lat="43.94" lon="6.54988">
        <ele>924</ele>
        <time>2022-05-10T14:41:40.559Z</time>
      </trkpt>
      <trkpt lat="43.93999" lon="6.55003">
        <ele>925</ele>
        <time>2022-05-10T14:41:49.528Z</time>
      </trkpt>
      <trkpt lat="43.94006" lon="6.55041">
        <ele>925</ele>
        <time>2022-05-10T14:41:59.192Z</time>
      </trkpt>
      <trkpt lat="43.94009" lon="6.55055">
        <ele>926</ele>
        <time>2022-05-10T14:42:08.122Z</time>
      </trkpt>
      <trkpt lat="43.94014" lon="6.55063">
        <ele>926</ele>
        <time>2022-05-10T14:42:10.731Z</time>
      </trkpt>
      <trkpt lat="43.94019" lon="6.55064">
        <ele>927</ele>
        <time>2022-05-10T14:42:17.398Z</time>
      </trkpt>
      <trkpt lat="43.94025" lon="6.55061">
        <ele>929</ele>
        <time>2022-05-10T14:42:25.814Z</time>
      </trkpt>
      <trkpt lat="43.94039" lon="6.55038">
        <ele>933</ele>
        <time>2022-05-10T14:42:54.433Z</time>
      </trkpt>
      <trkpt lat="43.94045" lon="6.55035">
        <ele>934</ele>
        <time>2022-05-10T14:43:02.849Z</time>
      </trkpt>
      <trkpt lat="43.94052" lon="6.55033">
        <ele>936</ele>
        <time>2022-05-10T14:43:12.280Z</time>
      </trkpt>
      <trkpt lat="43.94059" lon="6.55034">
        <ele>937</ele>
        <time>2022-05-10T14:43:21.567Z</time>
      </trkpt>
      <trkpt lat="43.94067" lon="6.55041">
        <ele>939</ele>
        <time>2022-05-10T14:43:34.046Z</time>
      </trkpt>
      <trkpt lat="43.94076" lon="6.55054">
        <ele>940</ele>
        <time>2022-05-10T14:43:43.485Z</time>
      </trkpt>
      <trkpt lat="43.94092" lon="6.55095">
        <ele>942</ele>
        <time>2022-05-10T14:44:04.917Z</time>
      </trkpt>
      <trkpt lat="43.94096" lon="6.5511">
        <ele>943</ele>
        <time>2022-05-10T14:44:13.998Z</time>
      </trkpt>
      <trkpt lat="43.94104" lon="6.55197">
        <ele>945</ele>
        <time>2022-05-10T14:44:44.435Z</time>
      </trkpt>
      <trkpt lat="43.94104" lon="6.55216">
        <ele>946</ele>
        <time>2022-05-10T14:44:54.079Z</time>
      </trkpt>
      <trkpt lat="43.941" lon="6.55231">
        <ele>945</ele>
        <time>2022-05-10T14:44:55.522Z</time>
      </trkpt>
      <trkpt lat="43.94093" lon="6.55253">
        <ele>945</ele>
        <time>2022-05-10T14:45:01.448Z</time>
      </trkpt>
      <trkpt lat="43.94081" lon="6.55277">
        <ele>945</ele>
        <time>2022-05-10T14:45:08.646Z</time>
      </trkpt>
      <trkpt lat="43.94048" lon="6.5532">
        <ele>944</ele>
        <time>2022-05-10T14:45:16.489Z</time>
      </trkpt>
      <trkpt lat="43.94044" lon="6.55331">
        <ele>944</ele>
        <time>2022-05-10T14:45:19.525Z</time>
      </trkpt>
      <trkpt lat="43.94041" lon="6.55343">
        <ele>944</ele>
        <time>2022-05-10T14:45:22.654Z</time>
      </trkpt>
      <trkpt lat="43.94042" lon="6.55356">
        <ele>944</ele>
        <time>2022-05-10T14:45:25.875Z</time>
      </trkpt>
      <trkpt lat="43.94046" lon="6.55375">
        <ele>945</ele>
        <time>2022-05-10T14:45:35.700Z</time>
      </trkpt>
      <trkpt lat="43.94058" lon="6.5541">
        <ele>949</ele>
        <time>2022-05-10T14:46:12.538Z</time>
      </trkpt>
      <trkpt lat="43.94079" lon="6.55453">
        <ele>951</ele>
        <time>2022-05-10T14:46:35.439Z</time>
      </trkpt>
      <trkpt lat="43.94142" lon="6.55595">
        <ele>953</ele>
        <time>2022-05-10T14:47:23.927Z</time>
      </trkpt>
      <trkpt lat="43.94169" lon="6.55636">
        <ele>956</ele>
        <time>2022-05-10T14:47:52.547Z</time>
      </trkpt>
      <trkpt lat="43.9419" lon="6.55674">
        <ele>958</ele>
        <time>2022-05-10T14:48:14.321Z</time>
      </trkpt>
      <trkpt lat="43.94222" lon="6.55701">
        <ele>961</ele>
        <time>2022-05-10T14:48:42.230Z</time>
      </trkpt>
      <trkpt lat="43.9425" lon="6.5573">
        <ele>963</ele>
        <time>2022-05-10T14:49:04.170Z</time>
      </trkpt>
      <trkpt lat="43.94257" lon="6.5576">
        <ele>965</ele>
        <time>2022-05-10T14:49:22.271Z</time>
      </trkpt>
      <trkpt lat="43.94246" lon="6.55793">
        <ele>966</ele>
        <time>2022-05-10T14:49:36.050Z</time>
      </trkpt>
      <trkpt lat="43.94237" lon="6.55809">
        <ele>967</ele>
        <time>2022-05-10T14:49:45.995Z</time>
      </trkpt>
      <trkpt lat="43.94224" lon="6.5581">
        <ele>967</ele>
        <time>2022-05-10T14:49:50.450Z</time>
      </trkpt>
      <trkpt lat="43.94193" lon="6.55835">
        <ele>968</ele>
        <time>2022-05-10T14:50:06.925Z</time>
      </trkpt>
      <trkpt lat="43.94175" lon="6.55842">
        <ele>969</ele>
        <time>2022-05-10T14:50:18.370Z</time>
      </trkpt>
      <trkpt lat="43.94135" lon="6.55869">
        <ele>969</ele>
        <time>2022-05-10T14:50:33.587Z</time>
      </trkpt>
      <trkpt lat="43.94085" lon="6.55921">
        <ele>968</ele>
        <time>2022-05-10T14:50:45.224Z</time>
      </trkpt>
      <trkpt lat="43.94057" lon="6.55938">
        <ele>967</ele>
        <time>2022-05-10T14:50:49.946Z</time>
      </trkpt>
      <trkpt lat="43.9401" lon="6.55953">
        <ele>964</ele>
        <time>2022-05-10T14:50:55.673Z</time>
      </trkpt>
      <trkpt lat="43.9396" lon="6.55979">
        <ele>960</ele>
        <time>2022-05-10T14:51:02.362Z</time>
      </trkpt>
      <trkpt lat="43.93885" lon="6.56008">
        <ele>954</ele>
        <time>2022-05-10T14:51:12.114Z</time>
      </trkpt>
      <trkpt lat="43.93854" lon="6.56035">
        <ele>953</ele>
        <time>2022-05-10T14:51:18.098Z</time>
      </trkpt>
      <trkpt lat="43.93833" lon="6.56076">
        <ele>953</ele>
        <time>2022-05-10T14:51:30.494Z</time>
      </trkpt>
      <trkpt lat="43.93802" lon="6.5611">
        <ele>952</ele>
        <time>2022-05-10T14:51:37.097Z</time>
      </trkpt>
      <trkpt lat="43.93792" lon="6.56115">
        <ele>952</ele>
        <time>2022-05-10T14:51:40.733Z</time>
      </trkpt>
      <trkpt lat="43.93754" lon="6.56112">
        <ele>950</ele>
        <time>2022-05-10T14:51:45.625Z</time>
      </trkpt>
      <trkpt lat="43.93697" lon="6.5612">
        <ele>949</ele>
        <time>2022-05-10T14:51:56.111Z</time>
      </trkpt>
      <trkpt lat="43.93648" lon="6.56115">
        <ele>946</ele>
        <time>2022-05-10T14:52:02.000Z</time>
      </trkpt>
      <trkpt lat="43.9361" lon="6.56131">
        <ele>944</ele>
        <time>2022-05-10T14:52:07.199Z</time>
      </trkpt>
      <trkpt lat="43.93592" lon="6.56146">
        <ele>944</ele>
        <time>2022-05-10T14:52:14.381Z</time>
      </trkpt>
      <trkpt lat="43.93574" lon="6.56172">
        <ele>945</ele>
        <time>2022-05-10T14:52:28.109Z</time>
      </trkpt>
      <trkpt lat="43.93543" lon="6.56229">
        <ele>946</ele>
        <time>2022-05-10T14:52:49.522Z</time>
      </trkpt>
      <trkpt lat="43.93516" lon="6.56289">
        <ele>947</ele>
        <time>2022-05-10T14:53:10.775Z</time>
      </trkpt>
      <trkpt lat="43.93445" lon="6.56415">
        <ele>948</ele>
        <time>2022-05-10T14:53:53.599Z</time>
      </trkpt>
      <trkpt lat="43.93436" lon="6.56435">
        <ele>949</ele>
        <time>2022-05-10T14:54:04.388Z</time>
      </trkpt>
      <trkpt lat="43.93417" lon="6.56464">
        <ele>949</ele>
        <time>2022-05-10T14:54:14.048Z</time>
      </trkpt>
      <trkpt lat="43.93363" lon="6.56533">
        <ele>950</ele>
        <time>2022-05-10T14:54:42.737Z</time>
      </trkpt>
      <trkpt lat="43.93287" lon="6.56644">
        <ele>953</ele>
        <time>2022-05-10T14:55:32.997Z</time>
      </trkpt>
      <trkpt lat="43.93245" lon="6.56693">
        <ele>955</ele>
        <time>2022-05-10T14:56:01.176Z</time>
      </trkpt>
      <trkpt lat="43.932" lon="6.56721">
        <ele>957</ele>
        <time>2022-05-10T14:56:28.021Z</time>
      </trkpt>
      <trkpt lat="43.93155" lon="6.56739">
        <ele>959</ele>
        <time>2022-05-10T14:56:54.339Z</time>
      </trkpt>
      <trkpt lat="43.93101" lon="6.56757">
        <ele>963</ele>
        <time>2022-05-10T14:57:33.167Z</time>
      </trkpt>
      <trkpt lat="43.93057" lon="6.56777">
        <ele>967</ele>
        <time>2022-05-10T14:58:09.540Z</time>
      </trkpt>
      <trkpt lat="43.93017" lon="6.56812">
        <ele>969</ele>
        <time>2022-05-10T14:58:35.949Z</time>
      </trkpt>
      <trkpt lat="43.9297" lon="6.56901">
        <ele>976</ele>
        <time>2022-05-10T14:59:39.304Z</time>
      </trkpt>
      <trkpt lat="43.92961" lon="6.56933">
        <ele>978</ele>
        <time>2022-05-10T14:59:57.853Z</time>
      </trkpt>
      <trkpt lat="43.92949" lon="6.56964">
        <ele>979</ele>
        <time>2022-05-10T15:00:11.433Z</time>
      </trkpt>
      <trkpt lat="43.92884" lon="6.57086">
        <ele>982</ele>
        <time>2022-05-10T15:01:01.387Z</time>
      </trkpt>
      <trkpt lat="43.92866" lon="6.57104">
        <ele>980</ele>
        <time>2022-05-10T15:01:04.166Z</time>
      </trkpt>
      <trkpt lat="43.92849" lon="6.57137">
        <ele>978</ele>
        <time>2022-05-10T15:01:07.827Z</time>
      </trkpt>
      <trkpt lat="43.92832" lon="6.57158">
        <ele>975</ele>
        <time>2022-05-10T15:01:10.677Z</time>
      </trkpt>
      <trkpt lat="43.928" lon="6.57184">
        <ele>979</ele>
        <time>2022-05-10T15:01:46.412Z</time>
      </trkpt>
      <trkpt lat="43.92751" lon="6.57218">
        <ele>983</ele>
        <time>2022-05-10T15:02:25.005Z</time>
      </trkpt>
      <trkpt lat="43.92705" lon="6.57244">
        <ele>986</ele>
        <time>2022-05-10T15:02:56.892Z</time>
      </trkpt>
      <trkpt lat="43.92679" lon="6.57267">
        <ele>988</ele>
        <time>2022-05-10T15:03:17.327Z</time>
      </trkpt>
      <trkpt lat="43.92652" lon="6.57325">
        <ele>989</ele>
        <time>2022-05-10T15:03:38.187Z</time>
      </trkpt>
      <trkpt lat="43.92626" lon="6.57335">
        <ele>990</ele>
        <time>2022-05-10T15:03:52.163Z</time>
      </trkpt>
      <trkpt lat="43.9261" lon="6.57345">
        <ele>991</ele>
        <time>2022-05-10T15:04:03.164Z</time>
      </trkpt>
      <trkpt lat="43.92586" lon="6.57371">
        <ele>994</ele>
        <time>2022-05-10T15:04:29.872Z</time>
      </trkpt>
      <trkpt lat="43.92555" lon="6.57394">
        <ele>998</ele>
        <time>2022-05-10T15:05:06.005Z</time>
      </trkpt>
      <trkpt lat="43.92526" lon="6.5742">
        <ele>1002</ele>
        <time>2022-05-10T15:05:42.340Z</time>
      </trkpt>
      <trkpt lat="43.92488" lon="6.57438">
        <ele>1007</ele>
        <time>2022-05-10T15:06:29.287Z</time>
      </trkpt>
      <trkpt lat="43.92467" lon="6.57452">
        <ele>1010</ele>
        <time>2022-05-10T15:06:58.092Z</time>
      </trkpt>
      <trkpt lat="43.92461" lon="6.57471">
        <ele>1012</ele>
        <time>2022-05-10T15:07:17.812Z</time>
      </trkpt>
      <trkpt lat="43.92448" lon="6.57487">
        <ele>1012</ele>
        <time>2022-05-10T15:07:23.756Z</time>
      </trkpt>
      <trkpt lat="43.924" lon="6.57533">
        <ele>1015</ele>
        <time>2022-05-10T15:07:58.981Z</time>
      </trkpt>
      <trkpt lat="43.92366" lon="6.57556">
        <ele>1016</ele>
        <time>2022-05-10T15:08:16.057Z</time>
      </trkpt>
      <trkpt lat="43.92342" lon="6.57576">
        <ele>1014</ele>
        <time>2022-05-10T15:08:19.563Z</time>
      </trkpt>
      <trkpt lat="43.92317" lon="6.57589">
        <ele>1016</ele>
        <time>2022-05-10T15:08:38.651Z</time>
      </trkpt>
      <trkpt lat="43.92305" lon="6.57591">
        <ele>1018</ele>
        <time>2022-05-10T15:08:54.601Z</time>
      </trkpt>
      <trkpt lat="43.92244" lon="6.57586">
        <ele>1026</ele>
        <time>2022-05-10T15:10:12.416Z</time>
      </trkpt>
      <trkpt lat="43.92232" lon="6.57598">
        <ele>1028</ele>
        <time>2022-05-10T15:10:31.933Z</time>
      </trkpt>
      <trkpt lat="43.92204" lon="6.57647">
        <ele>1028</ele>
        <time>2022-05-10T15:10:47.347Z</time>
      </trkpt>
      <trkpt lat="43.92185" lon="6.57664">
        <ele>1027</ele>
        <time>2022-05-10T15:10:50.472Z</time>
      </trkpt>
      <trkpt lat="43.92161" lon="6.57683">
        <ele>1029</ele>
        <time>2022-05-10T15:11:09.843Z</time>
      </trkpt>
      <trkpt lat="43.92137" lon="6.57695">
        <ele>1032</ele>
        <time>2022-05-10T15:11:37.240Z</time>
      </trkpt>
      <trkpt lat="43.92115" lon="6.57694">
        <ele>1035</ele>
        <time>2022-05-10T15:12:06.289Z</time>
      </trkpt>
      <trkpt lat="43.92095" lon="6.57688">
        <ele>1037</ele>
        <time>2022-05-10T15:12:24.103Z</time>
      </trkpt>
      <trkpt lat="43.92077" lon="6.57694">
        <ele>1040</ele>
        <time>2022-05-10T15:12:48.533Z</time>
      </trkpt>
      <trkpt lat="43.92023" lon="6.57733">
        <ele>1047</ele>
        <time>2022-05-10T15:13:51.963Z</time>
      </trkpt>
      <trkpt lat="43.91972" lon="6.57765">
        <ele>1054</ele>
        <time>2022-05-10T15:14:57.861Z</time>
      </trkpt>
      <trkpt lat="43.91923" lon="6.57803">
        <ele>1061</ele>
        <time>2022-05-10T15:16:03.645Z</time>
      </trkpt>
      <trkpt lat="43.91871" lon="6.57872">
        <ele>1067</ele>
        <time>2022-05-10T15:16:58.741Z</time>
      </trkpt>
      <trkpt lat="43.91819" lon="6.57956">
        <ele>1064</ele>
        <time>2022-05-10T15:17:10.484Z</time>
      </trkpt>
      <trkpt lat="43.91776" lon="6.58037">
        <ele>1060</ele>
        <time>2022-05-10T15:17:19.594Z</time>
      </trkpt>
      <trkpt lat="43.91742" lon="6.58126">
        <ele>1049</ele>
        <time>2022-05-10T15:17:28.685Z</time>
      </trkpt>
      <trkpt lat="43.9172" lon="6.58175">
        <ele>1047</ele>
        <time>2022-05-10T15:17:34.240Z</time>
      </trkpt>
      <trkpt lat="43.91692" lon="6.58213">
        <ele>1046</ele>
        <time>2022-05-10T15:17:40.769Z</time>
      </trkpt>
      <trkpt lat="43.91633" lon="6.58323">
        <ele>1037</ele>
        <time>2022-05-10T15:17:53.145Z</time>
      </trkpt>
      <trkpt lat="43.91612" lon="6.58366">
        <ele>1035</ele>
        <time>2022-05-10T15:17:57.918Z</time>
      </trkpt>
      <trkpt lat="43.91601" lon="6.58381">
        <ele>1033</ele>
        <time>2022-05-10T15:17:59.850Z</time>
      </trkpt>
      <trkpt lat="43.91592" lon="6.58386">
        <ele>1033</ele>
        <time>2022-05-10T15:18:03.167Z</time>
      </trkpt>
      <trkpt lat="43.91577" lon="6.58386">
        <ele>1033</ele>
        <time>2022-05-10T15:18:08.299Z</time>
      </trkpt>
      <trkpt lat="43.91567" lon="6.58412">
        <ele>1031</ele>
        <time>2022-05-10T15:18:10.959Z</time>
      </trkpt>
      <trkpt lat="43.91557" lon="6.5846">
        <ele>1034</ele>
        <time>2022-05-10T15:18:38.513Z</time>
      </trkpt>
      <trkpt lat="43.91538" lon="6.58512">
        <ele>1039</ele>
        <time>2022-05-10T15:19:24.399Z</time>
      </trkpt>
      <trkpt lat="43.91509" lon="6.58557">
        <ele>1042</ele>
        <time>2022-05-10T15:19:54.115Z</time>
      </trkpt>
      <trkpt lat="43.9144" lon="6.58632">
        <ele>1038</ele>
        <time>2022-05-10T15:20:06.078Z</time>
      </trkpt>
      <trkpt lat="43.91417" lon="6.58678">
        <ele>1036</ele>
        <time>2022-05-10T15:20:11.396Z</time>
      </trkpt>
      <trkpt lat="43.91407" lon="6.58696">
        <ele>1036</ele>
        <time>2022-05-10T15:20:16.999Z</time>
      </trkpt>
      <trkpt lat="43.91402" lon="6.58696">
        <ele>1035</ele>
        <time>2022-05-10T15:20:17.625Z</time>
      </trkpt>
      <trkpt lat="43.91402" lon="6.58694">
        <ele>1035</ele>
        <time>2022-05-10T15:20:18.118Z</time>
      </trkpt>
      <trkpt lat="43.91399" lon="6.58691">
        <ele>1035</ele>
        <time>2022-05-10T15:20:19.383Z</time>
      </trkpt>
      <trkpt lat="43.91396" lon="6.58691">
        <ele>1035</ele>
        <time>2022-05-10T15:20:20.409Z</time>
      </trkpt>
      <trkpt lat="43.91395" lon="6.58693">
        <ele>1035</ele>
        <time>2022-05-10T15:20:21.009Z</time>
      </trkpt>
      <trkpt lat="43.91395" lon="6.58694">
        <ele>1035</ele>
        <time>2022-05-10T15:20:21.256Z</time>
      </trkpt>
      <trkpt lat="43.91395" lon="6.58697">
        <ele>1035</ele>
        <time>2022-05-10T15:20:21.995Z</time>
      </trkpt>
      <trkpt lat="43.91396" lon="6.58699">
        <ele>1035</ele>
        <time>2022-05-10T15:20:22.595Z</time>
      </trkpt>
      <trkpt lat="43.91396" lon="6.587">
        <ele>1035</ele>
        <time>2022-05-10T15:20:22.842Z</time>
      </trkpt>
      <trkpt lat="43.91395" lon="6.58708">
        <ele>1035</ele>
        <time>2022-05-10T15:20:24.843Z</time>
      </trkpt>
      <trkpt lat="43.91396" lon="6.58714">
        <ele>1035</ele>
        <time>2022-05-10T15:20:26.361Z</time>
      </trkpt>
      <trkpt lat="43.91396" lon="6.587">
        <ele>1035</ele>
        <time>2022-05-10T15:20:29.812Z</time>
      </trkpt>
      <trkpt lat="43.91398" lon="6.587">
        <ele>1035</ele>
        <time>2022-05-10T15:20:30.496Z</time>
      </trkpt>
      <trkpt lat="43.91401" lon="6.58698">
        <ele>1035</ele>
        <time>2022-05-10T15:20:31.635Z</time>
      </trkpt>
      <trkpt lat="43.91402" lon="6.58696">
        <ele>1035</ele>
        <time>2022-05-10T15:20:32.235Z</time>
      </trkpt>
      <trkpt lat="43.91407" lon="6.58696">
        <ele>1036</ele>
        <time>2022-05-10T15:20:38.833Z</time>
      </trkpt>
      <trkpt lat="43.91417" lon="6.58678">
        <ele>1036</ele>
        <time>2022-05-10T15:20:44.436Z</time>
      </trkpt>
      <trkpt lat="43.9144" lon="6.58632">
        <ele>1038</ele>
        <time>2022-05-10T15:21:08.502Z</time>
      </trkpt>
      <trkpt lat="43.91509" lon="6.58557">
        <ele>1042</ele>
        <time>2022-05-10T15:21:59.477Z</time>
      </trkpt>
      <trkpt lat="43.91538" lon="6.58512">
        <ele>1039</ele>
        <time>2022-05-10T15:22:04.925Z</time>
      </trkpt>
      <trkpt lat="43.91557" lon="6.5846">
        <ele>1034</ele>
        <time>2022-05-10T15:22:10.187Z</time>
      </trkpt>
      <trkpt lat="43.91567" lon="6.58412">
        <ele>1031</ele>
        <time>2022-05-10T15:22:14.696Z</time>
      </trkpt>
      <trkpt lat="43.91577" lon="6.58386">
        <ele>1033</ele>
        <time>2022-05-10T15:22:32.576Z</time>
      </trkpt>
      <trkpt lat="43.91592" lon="6.58386">
        <ele>1033</ele>
        <time>2022-05-10T15:22:37.708Z</time>
      </trkpt>
      <trkpt lat="43.91601" lon="6.58381">
        <ele>1033</ele>
        <time>2022-05-10T15:22:41.025Z</time>
      </trkpt>
      <trkpt lat="43.91612" lon="6.58366">
        <ele>1035</ele>
        <time>2022-05-10T15:23:00.334Z</time>
      </trkpt>
      <trkpt lat="43.91633" lon="6.58323">
        <ele>1037</ele>
        <time>2022-05-10T15:23:23.240Z</time>
      </trkpt>
      <trkpt lat="43.91692" lon="6.58213">
        <ele>1046</ele>
        <time>2022-05-10T15:24:44.126Z</time>
      </trkpt>
      <trkpt lat="43.9172" lon="6.58175">
        <ele>1047</ele>
        <time>2022-05-10T15:25:01.614Z</time>
      </trkpt>
      <trkpt lat="43.91742" lon="6.58126">
        <ele>1049</ele>
        <time>2022-05-10T15:25:26.189Z</time>
      </trkpt>
      <trkpt lat="43.91776" lon="6.58037">
        <ele>1060</ele>
        <time>2022-05-10T15:27:01.957Z</time>
      </trkpt>
      <trkpt lat="43.91819" lon="6.57956">
        <ele>1064</ele>
        <time>2022-05-10T15:27:46.845Z</time>
      </trkpt>
      <trkpt lat="43.91871" lon="6.57872">
        <ele>1067</ele>
        <time>2022-05-10T15:28:28.484Z</time>
      </trkpt>
      <trkpt lat="43.91923" lon="6.57803">
        <ele>1061</ele>
        <time>2022-05-10T15:28:37.495Z</time>
      </trkpt>
      <trkpt lat="43.91972" lon="6.57765">
        <ele>1054</ele>
        <time>2022-05-10T15:28:44.527Z</time>
      </trkpt>
      <trkpt lat="43.92023" lon="6.57733">
        <ele>1047</ele>
        <time>2022-05-10T15:28:51.538Z</time>
      </trkpt>
      <trkpt lat="43.92077" lon="6.57694">
        <ele>1040</ele>
        <time>2022-05-10T15:28:59.163Z</time>
      </trkpt>
      <trkpt lat="43.92095" lon="6.57688">
        <ele>1037</ele>
        <time>2022-05-10T15:29:01.482Z</time>
      </trkpt>
      <trkpt lat="43.92115" lon="6.57694">
        <ele>1035</ele>
        <time>2022-05-10T15:29:04.045Z</time>
      </trkpt>
      <trkpt lat="43.92137" lon="6.57695">
        <ele>1032</ele>
        <time>2022-05-10T15:29:06.803Z</time>
      </trkpt>
      <trkpt lat="43.92161" lon="6.57683">
        <ele>1029</ele>
        <time>2022-05-10T15:29:09.998Z</time>
      </trkpt>
      <trkpt lat="43.92185" lon="6.57664">
        <ele>1027</ele>
        <time>2022-05-10T15:29:13.459Z</time>
      </trkpt>
      <trkpt lat="43.92204" lon="6.57647">
        <ele>1028</ele>
        <time>2022-05-10T15:29:26.462Z</time>
      </trkpt>
      <trkpt lat="43.92232" lon="6.57598">
        <ele>1028</ele>
        <time>2022-05-10T15:29:41.877Z</time>
      </trkpt>
      <trkpt lat="43.92244" lon="6.57586">
        <ele>1026</ele>
        <time>2022-05-10T15:29:43.729Z</time>
      </trkpt>
      <trkpt lat="43.92305" lon="6.57591">
        <ele>1018</ele>
        <time>2022-05-10T15:29:51.384Z</time>
      </trkpt>
      <trkpt lat="43.92317" lon="6.57589">
        <ele>1016</ele>
        <time>2022-05-10T15:29:52.898Z</time>
      </trkpt>
      <trkpt lat="43.92342" lon="6.57576">
        <ele>1014</ele>
        <time>2022-05-10T15:29:56.242Z</time>
      </trkpt>
      <trkpt lat="43.92366" lon="6.57556">
        <ele>1016</ele>
        <time>2022-05-10T15:30:15.727Z</time>
      </trkpt>
      <trkpt lat="43.924" lon="6.57533">
        <ele>1015</ele>
        <time>2022-05-10T15:30:21.971Z</time>
      </trkpt>
      <trkpt lat="43.92448" lon="6.57487">
        <ele>1012</ele>
        <time>2022-05-10T15:30:29.538Z</time>
      </trkpt>
      <trkpt lat="43.92461" lon="6.57471">
        <ele>1012</ele>
        <time>2022-05-10T15:30:35.482Z</time>
      </trkpt>
      <trkpt lat="43.92467" lon="6.57452">
        <ele>1010</ele>
        <time>2022-05-10T15:30:37.354Z</time>
      </trkpt>
      <trkpt lat="43.92488" lon="6.57438">
        <ele>1007</ele>
        <time>2022-05-10T15:30:40.272Z</time>
      </trkpt>
      <trkpt lat="43.92526" lon="6.5742">
        <ele>1002</ele>
        <time>2022-05-10T15:30:45.302Z</time>
      </trkpt>
      <trkpt lat="43.92555" lon="6.57394">
        <ele>998</ele>
        <time>2022-05-10T15:30:49.627Z</time>
      </trkpt>
      <trkpt lat="43.92586" lon="6.57371">
        <ele>994</ele>
        <time>2022-05-10T15:30:54.030Z</time>
      </trkpt>
      <trkpt lat="43.9261" lon="6.57345">
        <ele>991</ele>
        <time>2022-05-10T15:30:57.843Z</time>
      </trkpt>
      <trkpt lat="43.92626" lon="6.57335">
        <ele>990</ele>
        <time>2022-05-10T15:31:00.016Z</time>
      </trkpt>
      <trkpt lat="43.92652" lon="6.57325">
        <ele>989</ele>
        <time>2022-05-10T15:31:04.008Z</time>
      </trkpt>
      <trkpt lat="43.92679" lon="6.57267">
        <ele>988</ele>
        <time>2022-05-10T15:31:12.829Z</time>
      </trkpt>
      <trkpt lat="43.92705" lon="6.57244">
        <ele>986</ele>
        <time>2022-05-10T15:31:16.416Z</time>
      </trkpt>
      <trkpt lat="43.92751" lon="6.57218">
        <ele>983</ele>
        <time>2022-05-10T15:31:22.400Z</time>
      </trkpt>
      <trkpt lat="43.928" lon="6.57184">
        <ele>979</ele>
        <time>2022-05-10T15:31:29.262Z</time>
      </trkpt>
      <trkpt lat="43.92832" lon="6.57158">
        <ele>975</ele>
        <time>2022-05-10T15:31:33.906Z</time>
      </trkpt>
      <trkpt lat="43.92849" lon="6.57137">
        <ele>978</ele>
        <time>2022-05-10T15:32:03.261Z</time>
      </trkpt>
      <trkpt lat="43.92866" lon="6.57104">
        <ele>980</ele>
        <time>2022-05-10T15:32:23.146Z</time>
      </trkpt>
      <trkpt lat="43.92884" lon="6.57086">
        <ele>982</ele>
        <time>2022-05-10T15:32:41.156Z</time>
      </trkpt>
      <trkpt lat="43.92949" lon="6.56964">
        <ele>979</ele>
        <time>2022-05-10T15:32:59.004Z</time>
      </trkpt>
      <trkpt lat="43.92961" lon="6.56933">
        <ele>978</ele>
        <time>2022-05-10T15:33:02.669Z</time>
      </trkpt>
      <trkpt lat="43.9297" lon="6.56901">
        <ele>976</ele>
        <time>2022-05-10T15:33:05.768Z</time>
      </trkpt>
      <trkpt lat="43.93017" lon="6.56812">
        <ele>969</ele>
        <time>2022-05-10T15:33:15.725Z</time>
      </trkpt>
      <trkpt lat="43.93057" lon="6.56777">
        <ele>967</ele>
        <time>2022-05-10T15:33:22.380Z</time>
      </trkpt>
      <trkpt lat="43.93101" lon="6.56757">
        <ele>963</ele>
        <time>2022-05-10T15:33:28.180Z</time>
      </trkpt>
      <trkpt lat="43.93155" lon="6.56739">
        <ele>959</ele>
        <time>2022-05-10T15:33:35.136Z</time>
      </trkpt>
      <trkpt lat="43.932" lon="6.56721">
        <ele>957</ele>
        <time>2022-05-10T15:33:41.703Z</time>
      </trkpt>
      <trkpt lat="43.93245" lon="6.56693">
        <ele>955</ele>
        <time>2022-05-10T15:33:48.758Z</time>
      </trkpt>
      <trkpt lat="43.93287" lon="6.56644">
        <ele>953</ele>
        <time>2022-05-10T15:33:56.923Z</time>
      </trkpt>
      <trkpt lat="43.93363" lon="6.56533">
        <ele>950</ele>
        <time>2022-05-10T15:34:14.984Z</time>
      </trkpt>
      <trkpt lat="43.93417" lon="6.56464">
        <ele>949</ele>
        <time>2022-05-10T15:34:29.068Z</time>
      </trkpt>
      <trkpt lat="43.93436" lon="6.56435">
        <ele>949</ele>
        <time>2022-05-10T15:34:38.728Z</time>
      </trkpt>
      <trkpt lat="43.93445" lon="6.56415">
        <ele>948</ele>
        <time>2022-05-10T15:34:40.799Z</time>
      </trkpt>
      <trkpt lat="43.93516" lon="6.56289">
        <ele>947</ele>
        <time>2022-05-10T15:35:04.389Z</time>
      </trkpt>
      <trkpt lat="43.93543" lon="6.56229">
        <ele>946</ele>
        <time>2022-05-10T15:35:13.476Z</time>
      </trkpt>
      <trkpt lat="43.93574" lon="6.56172">
        <ele>945</ele>
        <time>2022-05-10T15:35:22.670Z</time>
      </trkpt>
      <trkpt lat="43.93592" lon="6.56146">
        <ele>944</ele>
        <time>2022-05-10T15:35:26.460Z</time>
      </trkpt>
      <trkpt lat="43.9361" lon="6.56131">
        <ele>944</ele>
        <time>2022-05-10T15:35:33.642Z</time>
      </trkpt>
      <trkpt lat="43.93648" lon="6.56115">
        <ele>946</ele>
        <time>2022-05-10T15:35:57.456Z</time>
      </trkpt>
      <trkpt lat="43.93697" lon="6.5612">
        <ele>949</ele>
        <time>2022-05-10T15:36:29.146Z</time>
      </trkpt>
      <trkpt lat="43.93754" lon="6.56112">
        <ele>950</ele>
        <time>2022-05-10T15:36:52.478Z</time>
      </trkpt>
      <trkpt lat="43.93792" lon="6.56115">
        <ele>952</ele>
        <time>2022-05-10T15:37:15.636Z</time>
      </trkpt>
      <trkpt lat="43.93802" lon="6.5611">
        <ele>952</ele>
        <time>2022-05-10T15:37:19.272Z</time>
      </trkpt>
      <trkpt lat="43.93833" lon="6.56076">
        <ele>953</ele>
        <time>2022-05-10T15:37:36.868Z</time>
      </trkpt>
      <trkpt lat="43.93854" lon="6.56035">
        <ele>953</ele>
        <time>2022-05-10T15:37:49.264Z</time>
      </trkpt>
      <trkpt lat="43.93885" lon="6.56008">
        <ele>954</ele>
        <time>2022-05-10T15:38:05.964Z</time>
      </trkpt>
      <trkpt lat="43.9396" lon="6.55979">
        <ele>960</ele>
        <time>2022-05-10T15:39:02.582Z</time>
      </trkpt>
      <trkpt lat="43.9401" lon="6.55953">
        <ele>964</ele>
        <time>2022-05-10T15:39:40.757Z</time>
      </trkpt>
      <trkpt lat="43.94057" lon="6.55938">
        <ele>967</ele>
        <time>2022-05-10T15:40:12.117Z</time>
      </trkpt>
      <trkpt lat="43.94085" lon="6.55921">
        <ele>968</ele>
        <time>2022-05-10T15:40:27.048Z</time>
      </trkpt>
      <trkpt lat="43.94135" lon="6.55869">
        <ele>969</ele>
        <time>2022-05-10T15:40:52.093Z</time>
      </trkpt>
      <trkpt lat="43.94175" lon="6.55842">
        <ele>969</ele>
        <time>2022-05-10T15:41:07.310Z</time>
      </trkpt>
      <trkpt lat="43.94193" lon="6.55835">
        <ele>968</ele>
        <time>2022-05-10T15:41:09.693Z</time>
      </trkpt>
      <trkpt lat="43.94224" lon="6.5581">
        <ele>967</ele>
        <time>2022-05-10T15:41:15.519Z</time>
      </trkpt>
      <trkpt lat="43.94237" lon="6.55809">
        <ele>967</ele>
        <time>2022-05-10T15:41:19.973Z</time>
      </trkpt>
      <trkpt lat="43.94249" lon="6.55822">
        <ele>968</ele>
        <time>2022-05-10T15:41:30.123Z</time>
      </trkpt>
      <trkpt lat="43.94263" lon="6.55831">
        <ele>969</ele>
        <time>2022-05-10T15:41:40.345Z</time>
      </trkpt>
      <trkpt lat="43.94273" lon="6.5583">
        <ele>970</ele>
        <time>2022-05-10T15:41:49.243Z</time>
      </trkpt>
      <trkpt lat="43.94289" lon="6.55823">
        <ele>970</ele>
        <time>2022-05-10T15:41:54.983Z</time>
      </trkpt>
      <trkpt lat="43.94294" lon="6.55818">
        <ele>970</ele>
        <time>2022-05-10T15:41:57.091Z</time>
      </trkpt>
      <trkpt lat="43.94294" lon="6.5581">
        <ele>970</ele>
        <time>2022-05-10T15:41:59.062Z</time>
      </trkpt>
      <trkpt lat="43.94318" lon="6.55766">
        <ele>973</ele>
        <time>2022-05-10T15:42:27.605Z</time>
      </trkpt>
      <trkpt lat="43.94335" lon="6.55752">
        <ele>975</ele>
        <time>2022-05-10T15:42:45.397Z</time>
      </trkpt>
      <trkpt lat="43.94352" lon="6.5573">
        <ele>978</ele>
        <time>2022-05-10T15:43:14.258Z</time>
      </trkpt>
      <trkpt lat="43.94355" lon="6.55707">
        <ele>980</ele>
        <time>2022-05-10T15:43:32.599Z</time>
      </trkpt>
      <trkpt lat="43.94359" lon="6.55697">
        <ele>982</ele>
        <time>2022-05-10T15:43:43.469Z</time>
      </trkpt>
      <trkpt lat="43.94362" lon="6.55675">
        <ele>984</ele>
        <time>2022-05-10T15:44:02.205Z</time>
      </trkpt>
      <trkpt lat="43.94355" lon="6.55651">
        <ele>985</ele>
        <time>2022-05-10T15:44:13.632Z</time>
      </trkpt>
      <trkpt lat="43.94344" lon="6.5562">
        <ele>987</ele>
        <time>2022-05-10T15:44:32.218Z</time>
      </trkpt>
      <trkpt lat="43.94332" lon="6.55593">
        <ele>987</ele>
        <time>2022-05-10T15:44:40.035Z</time>
      </trkpt>
      <trkpt lat="43.94327" lon="6.55573">
        <ele>988</ele>
        <time>2022-05-10T15:44:50.193Z</time>
      </trkpt>
      <trkpt lat="43.94319" lon="6.55556">
        <ele>989</ele>
        <time>2022-05-10T15:45:00.139Z</time>
      </trkpt>
      <trkpt lat="43.94295" lon="6.55515">
        <ele>990</ele>
        <time>2022-05-10T15:45:17.284Z</time>
      </trkpt>
      <trkpt lat="43.94269" lon="6.55455">
        <ele>992</ele>
        <time>2022-05-10T15:45:44.381Z</time>
      </trkpt>
      <trkpt lat="43.94268" lon="6.55436">
        <ele>995</ele>
        <time>2022-05-10T15:46:02.484Z</time>
      </trkpt>
      <trkpt lat="43.94274" lon="6.55418">
        <ele>998</ele>
        <time>2022-05-10T15:46:21.332Z</time>
      </trkpt>
      <trkpt lat="43.943" lon="6.55364">
        <ele>1000</ele>
        <time>2022-05-10T15:46:47.639Z</time>
      </trkpt>
      <trkpt lat="43.94325" lon="6.55327">
        <ele>1004</ele>
        <time>2022-05-10T15:47:23.456Z</time>
      </trkpt>
      <trkpt lat="43.94352" lon="6.55276">
        <ele>1004</ele>
        <time>2022-05-10T15:47:39.051Z</time>
      </trkpt>
      <trkpt lat="43.94376" lon="6.55244">
        <ele>1004</ele>
        <time>2022-05-10T15:47:50.434Z</time>
      </trkpt>
      <trkpt lat="43.944" lon="6.55223">
        <ele>1004</ele>
        <time>2022-05-10T15:48:00.140Z</time>
      </trkpt>
      <trkpt lat="43.94417" lon="6.55214">
        <ele>1005</ele>
        <time>2022-05-10T15:48:11.390Z</time>
      </trkpt>
      <trkpt lat="43.94435" lon="6.55191">
        <ele>1002</ele>
        <time>2022-05-10T15:48:14.454Z</time>
      </trkpt>
      <trkpt lat="43.94445" lon="6.55185">
        <ele>1001</ele>
        <time>2022-05-10T15:48:15.819Z</time>
      </trkpt>
      <trkpt lat="43.94454" lon="6.55185">
        <ele>1001</ele>
        <time>2022-05-10T15:48:18.898Z</time>
      </trkpt>
      <trkpt lat="43.94502" lon="6.55196">
        <ele>1004</ele>
        <time>2022-05-10T15:48:50.412Z</time>
      </trkpt>
      <trkpt lat="43.94547" lon="6.55202">
        <ele>1010</ele>
        <time>2022-05-10T15:49:49.465Z</time>
      </trkpt>
      <trkpt lat="43.94555" lon="6.55209">
        <ele>1011</ele>
        <time>2022-05-10T15:49:58.378Z</time>
      </trkpt>
      <trkpt lat="43.94561" lon="6.55211">
        <ele>1012</ele>
        <time>2022-05-10T15:50:06.522Z</time>
      </trkpt>
      <trkpt lat="43.94565" lon="6.55206">
        <ele>1012</ele>
        <time>2022-05-10T15:50:08.363Z</time>
      </trkpt>
      <trkpt lat="43.94567" lon="6.55196">
        <ele>1012</ele>
        <time>2022-05-10T15:50:10.920Z</time>
      </trkpt>
      <trkpt lat="43.94565" lon="6.5518">
        <ele>1010</ele>
        <time>2022-05-10T15:50:12.384Z</time>
      </trkpt>
      <trkpt lat="43.94548" lon="6.55142">
        <ele>1005</ele>
        <time>2022-05-10T15:50:16.419Z</time>
      </trkpt>
      <trkpt lat="43.94541" lon="6.55119">
        <ele>1002</ele>
        <time>2022-05-10T15:50:18.672Z</time>
      </trkpt>
      <trkpt lat="43.94539" lon="6.55105">
        <ele>1000</ele>
        <time>2022-05-10T15:50:19.959Z</time>
      </trkpt>
      <trkpt lat="43.94541" lon="6.55081">
        <ele>999</ele>
        <time>2022-05-10T15:50:22.105Z</time>
      </trkpt>
      <trkpt lat="43.94546" lon="6.55073">
        <ele>1001</ele>
        <time>2022-05-10T15:50:32.171Z</time>
      </trkpt>
      <trkpt lat="43.94572" lon="6.55068">
        <ele>1008</ele>
        <time>2022-05-10T15:51:06.811Z</time>
      </trkpt>
      <trkpt lat="43.94578" lon="6.55064">
        <ele>1010</ele>
        <time>2022-05-10T15:51:15.594Z</time>
      </trkpt>
      <trkpt lat="43.94581" lon="6.55053">
        <ele>1010</ele>
        <time>2022-05-10T15:51:18.491Z</time>
      </trkpt>
      <trkpt lat="43.94575" lon="6.55031">
        <ele>1008</ele>
        <time>2022-05-10T15:51:20.613Z</time>
      </trkpt>
      <trkpt lat="43.94576" lon="6.55012">
        <ele>1008</ele>
        <time>2022-05-10T15:51:25.306Z</time>
      </trkpt>
      <trkpt lat="43.94582" lon="6.54996">
        <ele>1008</ele>
        <time>2022-05-10T15:51:29.750Z</time>
      </trkpt>
      <trkpt lat="43.94591" lon="6.54982">
        <ele>1006</ele>
        <time>2022-05-10T15:51:31.443Z</time>
      </trkpt>
      <trkpt lat="43.94603" lon="6.54968">
        <ele>1003</ele>
        <time>2022-05-10T15:51:33.406Z</time>
      </trkpt>
      <trkpt lat="43.94614" lon="6.54961">
        <ele>1001</ele>
        <time>2022-05-10T15:51:34.922Z</time>
      </trkpt>
      <trkpt lat="43.94654" lon="6.54964">
        <ele>999</ele>
        <time>2022-05-10T15:51:40.187Z</time>
      </trkpt>
      <trkpt lat="43.94674" lon="6.54971">
        <ele>999</ele>
        <time>2022-05-10T15:51:47.244Z</time>
      </trkpt>
      <trkpt lat="43.9469" lon="6.54973">
        <ele>998</ele>
        <time>2022-05-10T15:51:49.152Z</time>
      </trkpt>
      <trkpt lat="43.94704" lon="6.54972">
        <ele>997</ele>
        <time>2022-05-10T15:51:50.908Z</time>
      </trkpt>
      <trkpt lat="43.9473" lon="6.54958">
        <ele>993</ele>
        <time>2022-05-10T15:51:54.401Z</time>
      </trkpt>
      <trkpt lat="43.94749" lon="6.54944">
        <ele>990</ele>
        <time>2022-05-10T15:51:57.096Z</time>
      </trkpt>
      <trkpt lat="43.94774" lon="6.54935">
        <ele>992</ele>
        <time>2022-05-10T15:52:15.933Z</time>
      </trkpt>
      <trkpt lat="43.94789" lon="6.54926">
        <ele>993</ele>
        <time>2022-05-10T15:52:26.483Z</time>
      </trkpt>
      <trkpt lat="43.94799" lon="6.54918">
        <ele>993</ele>
        <time>2022-05-10T15:52:30.431Z</time>
      </trkpt>
      <trkpt lat="43.94807" lon="6.54908">
        <ele>994</ele>
        <time>2022-05-10T15:52:39.389Z</time>
      </trkpt>
      <trkpt lat="43.94812" lon="6.54893">
        <ele>994</ele>
        <time>2022-05-10T15:52:43.461Z</time>
      </trkpt>
      <trkpt lat="43.94819" lon="6.54808">
        <ele>990</ele>
        <time>2022-05-10T15:52:50.624Z</time>
      </trkpt>
      <trkpt lat="43.94823" lon="6.54784">
        <ele>990</ele>
        <time>2022-05-10T15:52:56.692Z</time>
      </trkpt>
      <trkpt lat="43.94832" lon="6.54753">
        <ele>990</ele>
        <time>2022-05-10T15:53:04.926Z</time>
      </trkpt>
      <trkpt lat="43.94845" lon="6.54676">
        <ele>988</ele>
        <time>2022-05-10T15:53:13.514Z</time>
      </trkpt>
      <trkpt lat="43.94847" lon="6.54652">
        <ele>987</ele>
        <time>2022-05-10T15:53:15.659Z</time>
      </trkpt>
      <trkpt lat="43.94857" lon="6.54627">
        <ele>987</ele>
        <time>2022-05-10T15:53:22.704Z</time>
      </trkpt>
      <trkpt lat="43.94858" lon="6.54605">
        <ele>986</ele>
        <time>2022-05-10T15:53:24.577Z</time>
      </trkpt>
      <trkpt lat="43.94847" lon="6.54566">
        <ele>983</ele>
        <time>2022-05-10T15:53:28.355Z</time>
      </trkpt>
      <trkpt lat="43.94847" lon="6.5451">
        <ele>982</ele>
        <time>2022-05-10T15:53:35.133Z</time>
      </trkpt>
      <trkpt lat="43.94849" lon="6.54458">
        <ele>979</ele>
        <time>2022-05-10T15:53:39.829Z</time>
      </trkpt>
      <trkpt lat="43.94854" lon="6.54425">
        <ele>977</ele>
        <time>2022-05-10T15:53:42.871Z</time>
      </trkpt>
      <trkpt lat="43.94852" lon="6.54407">
        <ele>976</ele>
        <time>2022-05-10T15:53:44.513Z</time>
      </trkpt>
      <trkpt lat="43.94845" lon="6.54372">
        <ele>976</ele>
        <time>2022-05-10T15:53:53.462Z</time>
      </trkpt>
      <trkpt lat="43.94829" lon="6.54313">
        <ele>977</ele>
        <time>2022-05-10T15:54:12.918Z</time>
      </trkpt>
      <trkpt lat="43.9482" lon="6.5426">
        <ele>980</ele>
        <time>2022-05-10T15:54:41.306Z</time>
      </trkpt>
      <trkpt lat="43.94819" lon="6.54234">
        <ele>982</ele>
        <time>2022-05-10T15:54:59.149Z</time>
      </trkpt>
      <trkpt lat="43.94824" lon="6.54155">
        <ele>991</ele>
        <time>2022-05-10T15:56:14.500Z</time>
      </trkpt>
      <trkpt lat="43.94819" lon="6.54057">
        <ele>998</ele>
        <time>2022-05-10T15:57:16.806Z</time>
      </trkpt>
      <trkpt lat="43.94824" lon="6.54037">
        <ele>1001</ele>
        <time>2022-05-10T15:57:36.922Z</time>
      </trkpt>
      <trkpt lat="43.9481" lon="6.54002">
        <ele>1000</ele>
        <time>2022-05-10T15:57:41.288Z</time>
      </trkpt>
      <trkpt lat="43.94784" lon="6.53973">
        <ele>994</ele>
        <time>2022-05-10T15:57:45.466Z</time>
      </trkpt>
      <trkpt lat="43.94785" lon="6.53963">
        <ele>995</ele>
        <time>2022-05-10T15:57:55.058Z</time>
      </trkpt>
      <trkpt lat="43.94792" lon="6.53952">
        <ele>998</ele>
        <time>2022-05-10T15:58:09.007Z</time>
      </trkpt>
      <trkpt lat="43.94799" lon="6.53934">
        <ele>1001</ele>
        <time>2022-05-10T15:58:28.446Z</time>
      </trkpt>
      <trkpt lat="43.94803" lon="6.53913">
        <ele>1004</ele>
        <time>2022-05-10T15:58:49.085Z</time>
      </trkpt>
      <trkpt lat="43.94803" lon="6.53892">
        <ele>1006</ele>
        <time>2022-05-10T15:59:08.711Z</time>
      </trkpt>
      <trkpt lat="43.94799" lon="6.53875">
        <ele>1006</ele>
        <time>2022-05-10T15:59:13.117Z</time>
      </trkpt>
      <trkpt lat="43.94798" lon="6.5386">
        <ele>1007</ele>
        <time>2022-05-10T15:59:22.086Z</time>
      </trkpt>
      <trkpt lat="43.94798" lon="6.53806">
        <ele>1014</ele>
        <time>2022-05-10T16:00:13.394Z</time>
      </trkpt>
      <trkpt lat="43.94791" lon="6.53782">
        <ele>1015</ele>
        <time>2022-05-10T16:00:24.820Z</time>
      </trkpt>
      <trkpt lat="43.94775" lon="6.53754">
        <ele>1015</ele>
        <time>2022-05-10T16:00:33.626Z</time>
      </trkpt>
      <trkpt lat="43.94767" lon="6.53715">
        <ele>1017</ele>
        <time>2022-05-10T16:00:53.503Z</time>
      </trkpt>
      <trkpt lat="43.9475" lon="6.53684">
        <ele>1017</ele>
        <time>2022-05-10T16:01:03.102Z</time>
      </trkpt>
      <trkpt lat="43.94745" lon="6.53665">
        <ele>1019</ele>
        <time>2022-05-10T16:01:22.323Z</time>
      </trkpt>
      <trkpt lat="43.94739" lon="6.53605">
        <ele>1020</ele>
        <time>2022-05-10T16:01:41.212Z</time>
      </trkpt>
      <trkpt lat="43.94731" lon="6.53578">
        <ele>1019</ele>
        <time>2022-05-10T16:01:44.033Z</time>
      </trkpt>
      <trkpt lat="43.94736" lon="6.5356">
        <ele>1021</ele>
        <time>2022-05-10T16:02:02.365Z</time>
      </trkpt>
      <trkpt lat="43.9475" lon="6.53469">
        <ele>1021</ele>
        <time>2022-05-10T16:02:25.288Z</time>
      </trkpt>
      <trkpt lat="43.94759" lon="6.53425">
        <ele>1018</ele>
        <time>2022-05-10T16:02:29.413Z</time>
      </trkpt>
      <trkpt lat="43.94767" lon="6.53362">
        <ele>1013</ele>
        <time>2022-05-10T16:02:35.183Z</time>
      </trkpt>
      <trkpt lat="43.94768" lon="6.53313">
        <ele>1009</ele>
        <time>2022-05-10T16:02:39.604Z</time>
      </trkpt>
      <trkpt lat="43.94772" lon="6.53298">
        <ele>1007</ele>
        <time>2022-05-10T16:02:41.047Z</time>
      </trkpt>
      <trkpt lat="43.94749" lon="6.53213">
        <ele>1003</ele>
        <time>2022-05-10T16:02:48.875Z</time>
      </trkpt>
      <trkpt lat="43.94748" lon="6.532">
        <ele>1002</ele>
        <time>2022-05-10T16:02:50.054Z</time>
      </trkpt>
      <trkpt lat="43.94757" lon="6.53184">
        <ele>1000</ele>
        <time>2022-05-10T16:02:51.885Z</time>
      </trkpt>
      <trkpt lat="43.94764" lon="6.53167">
        <ele>999</ele>
        <time>2022-05-10T16:02:53.652Z</time>
      </trkpt>
      <trkpt lat="43.94765" lon="6.53148">
        <ele>1000</ele>
        <time>2022-05-10T16:03:03.307Z</time>
      </trkpt>
      <trkpt lat="43.9477" lon="6.53137">
        <ele>999</ele>
        <time>2022-05-10T16:03:04.480Z</time>
      </trkpt>
      <trkpt lat="43.94784" lon="6.5312">
        <ele>998</ele>
        <time>2022-05-10T16:03:06.845Z</time>
      </trkpt>
      <trkpt lat="43.94789" lon="6.53102">
        <ele>997</ele>
        <time>2022-05-10T16:03:08.585Z</time>
      </trkpt>
      <trkpt lat="43.94821" lon="6.53068">
        <ele>993</ele>
        <time>2022-05-10T16:03:13.632Z</time>
      </trkpt>
      <trkpt lat="43.94842" lon="6.53054">
        <ele>989</ele>
        <time>2022-05-10T16:03:16.550Z</time>
      </trkpt>
      <trkpt lat="43.94876" lon="6.53038">
        <ele>983</ele>
        <time>2022-05-10T16:03:21.047Z</time>
      </trkpt>
      <trkpt lat="43.94912" lon="6.53002">
        <ele>974</ele>
        <time>2022-05-10T16:03:26.604Z</time>
      </trkpt>
      <trkpt lat="43.9495" lon="6.5296">
        <ele>969</ele>
        <time>2022-05-10T16:03:32.688Z</time>
      </trkpt>
      <trkpt lat="43.94975" lon="6.52945">
        <ele>964</ele>
        <time>2022-05-10T16:03:36.100Z</time>
      </trkpt>
      <trkpt lat="43.9501" lon="6.5291">
        <ele>959</ele>
        <time>2022-05-10T16:03:41.502Z</time>
      </trkpt>
      <trkpt lat="43.95042" lon="6.52867">
        <ele>957</ele>
        <time>2022-05-10T16:03:47.620Z</time>
      </trkpt>
      <trkpt lat="43.95071" lon="6.52839">
        <ele>952</ele>
        <time>2022-05-10T16:03:52.045Z</time>
      </trkpt>
      <trkpt lat="43.95081" lon="6.52833">
        <ele>950</ele>
        <time>2022-05-10T16:03:53.409Z</time>
      </trkpt>
      <trkpt lat="43.95091" lon="6.52817">
        <ele>947</ele>
        <time>2022-05-10T16:03:55.320Z</time>
      </trkpt>
      <trkpt lat="43.95145" lon="6.5275">
        <ele>935</ele>
        <time>2022-05-10T16:04:04.390Z</time>
      </trkpt>
      <trkpt lat="43.95163" lon="6.52718">
        <ele>933</ele>
        <time>2022-05-10T16:04:08.053Z</time>
      </trkpt>
      <trkpt lat="43.9517" lon="6.52675">
        <ele>935</ele>
        <time>2022-05-10T16:04:28.811Z</time>
      </trkpt>
      <trkpt lat="43.9519" lon="6.5265">
        <ele>931</ele>
        <time>2022-05-10T16:04:32.182Z</time>
      </trkpt>
      <trkpt lat="43.95199" lon="6.52635">
        <ele>929</ele>
        <time>2022-05-10T16:04:33.943Z</time>
      </trkpt>
      <trkpt lat="43.95201" lon="6.52615">
        <ele>929</ele>
        <time>2022-05-10T16:04:38.916Z</time>
      </trkpt>
      <trkpt lat="43.95206" lon="6.52601">
        <ele>928</ele>
        <time>2022-05-10T16:04:40.326Z</time>
      </trkpt>
      <trkpt lat="43.95219" lon="6.52591">
        <ele>926</ele>
        <time>2022-05-10T16:04:42.187Z</time>
      </trkpt>
      <trkpt lat="43.95262" lon="6.52538">
        <ele>919</ele>
        <time>2022-05-10T16:04:49.389Z</time>
      </trkpt>
      <trkpt lat="43.95283" lon="6.52506">
        <ele>916</ele>
        <time>2022-05-10T16:04:53.294Z</time>
      </trkpt>
      <trkpt lat="43.95292" lon="6.52463">
        <ele>913</ele>
        <time>2022-05-10T16:04:57.332Z</time>
      </trkpt>
      <trkpt lat="43.95289" lon="6.52421">
        <ele>912</ele>
        <time>2022-05-10T16:05:02.018Z</time>
      </trkpt>
      <trkpt lat="43.95305" lon="6.52389">
        <ele>907</ele>
        <time>2022-05-10T16:05:05.532Z</time>
      </trkpt>
      <trkpt lat="43.95298" lon="6.52345">
        <ele>904</ele>
        <time>2022-05-10T16:05:09.596Z</time>
      </trkpt>
      <trkpt lat="43.95296" lon="6.52292">
        <ele>901</ele>
        <time>2022-05-10T16:05:14.382Z</time>
      </trkpt>
      <trkpt lat="43.95299" lon="6.52279">
        <ele>900</ele>
        <time>2022-05-10T16:05:15.613Z</time>
      </trkpt>
      <trkpt lat="43.95307" lon="6.52266">
        <ele>899</ele>
        <time>2022-05-10T16:05:17.156Z</time>
      </trkpt>
      <trkpt lat="43.95324" lon="6.52249">
        <ele>898</ele>
        <time>2022-05-10T16:05:19.962Z</time>
      </trkpt>
      <trkpt lat="43.95348" lon="6.52214">
        <ele>902</ele>
        <time>2022-05-10T16:05:56.203Z</time>
      </trkpt>
      <trkpt lat="43.95361" lon="6.52185">
        <ele>904</ele>
        <time>2022-05-10T16:06:14.716Z</time>
      </trkpt>
      <trkpt lat="43.95366" lon="6.52172">
        <ele>905</ele>
        <time>2022-05-10T16:06:23.656Z</time>
      </trkpt>
      <trkpt lat="43.95373" lon="6.52157">
        <ele>905</ele>
        <time>2022-05-10T16:06:28.059Z</time>
      </trkpt>
      <trkpt lat="43.95391" lon="6.52094">
        <ele>904</ele>
        <time>2022-05-10T16:06:36.673Z</time>
      </trkpt>
      <trkpt lat="43.95412" lon="6.5204">
        <ele>900</ele>
        <time>2022-05-10T16:06:42.208Z</time>
      </trkpt>
      <trkpt lat="43.9542" lon="6.52008">
        <ele>898</ele>
        <time>2022-05-10T16:06:45.263Z</time>
      </trkpt>
      <trkpt lat="43.95433" lon="6.51947">
        <ele>899</ele>
        <time>2022-05-10T16:07:04.850Z</time>
      </trkpt>
      <trkpt lat="43.95466" lon="6.51898">
        <ele>897</ele>
        <time>2022-05-10T16:07:11.706Z</time>
      </trkpt>
      <trkpt lat="43.95473" lon="6.51882">
        <ele>896</ele>
        <time>2022-05-10T16:07:13.395Z</time>
      </trkpt>
      <trkpt lat="43.95477" lon="6.51872">
        <ele>895</ele>
        <time>2022-05-10T16:07:14.427Z</time>
      </trkpt>
      <trkpt lat="43.95486" lon="6.51831">
        <ele>892</ele>
        <time>2022-05-10T16:07:18.292Z</time>
      </trkpt>
      <trkpt lat="43.95496" lon="6.51787">
        <ele>890</ele>
        <time>2022-05-10T16:07:22.300Z</time>
      </trkpt>
      <trkpt lat="43.9554" lon="6.51724">
        <ele>894</ele>
        <time>2022-05-10T16:08:03.713Z</time>
      </trkpt>
      <trkpt lat="43.95555" lon="6.51711">
        <ele>896</ele>
        <time>2022-05-10T16:08:21.751Z</time>
      </trkpt>
      <trkpt lat="43.95577" lon="6.5171">
        <ele>899</ele>
        <time>2022-05-10T16:08:50.800Z</time>
      </trkpt>
      <trkpt lat="43.95592" lon="6.51724">
        <ele>900</ele>
        <time>2022-05-10T16:09:02.003Z</time>
      </trkpt>
      <trkpt lat="43.95609" lon="6.51722">
        <ele>901</ele>
        <time>2022-05-10T16:09:12.820Z</time>
      </trkpt>
      <trkpt lat="43.95615" lon="6.51713">
        <ele>902</ele>
        <time>2022-05-10T16:09:21.842Z</time>
      </trkpt>
      <trkpt lat="43.95619" lon="6.517">
        <ele>903</ele>
        <time>2022-05-10T16:09:30.746Z</time>
      </trkpt>
      <trkpt lat="43.95612" lon="6.51657">
        <ele>903</ele>
        <time>2022-05-10T16:09:41.604Z</time>
      </trkpt>
      <trkpt lat="43.95614" lon="6.51637">
        <ele>901</ele>
        <time>2022-05-10T16:09:43.425Z</time>
      </trkpt>
      <trkpt lat="43.9562" lon="6.51624">
        <ele>901</ele>
        <time>2022-05-10T16:09:47.228Z</time>
      </trkpt>
      <trkpt lat="43.95627" lon="6.51612">
        <ele>900</ele>
        <time>2022-05-10T16:09:48.621Z</time>
      </trkpt>
      <trkpt lat="43.95633" lon="6.51611">
        <ele>901</ele>
        <time>2022-05-10T16:09:56.596Z</time>
      </trkpt>
      <trkpt lat="43.95643" lon="6.51609">
        <ele>901</ele>
        <time>2022-05-10T16:10:00.053Z</time>
      </trkpt>
      <trkpt lat="43.95748" lon="6.51604">
        <ele>904</ele>
        <time>2022-05-10T16:10:48.732Z</time>
      </trkpt>
      <trkpt lat="43.95784" lon="6.51607">
        <ele>903</ele>
        <time>2022-05-10T16:10:54.604Z</time>
      </trkpt>
      <trkpt lat="43.95813" lon="6.51605">
        <ele>901</ele>
        <time>2022-05-10T16:10:58.241Z</time>
      </trkpt>
      <trkpt lat="43.95852" lon="6.51616">
        <ele>902</ele>
        <time>2022-05-10T16:11:15.928Z</time>
      </trkpt>
      <trkpt lat="43.95865" lon="6.51614">
        <ele>902</ele>
        <time>2022-05-10T16:11:20.403Z</time>
      </trkpt>
      <trkpt lat="43.95887" lon="6.51587">
        <ele>900</ele>
        <time>2022-05-10T16:11:24.081Z</time>
      </trkpt>
      <trkpt lat="43.95899" lon="6.51581">
        <ele>899</ele>
        <time>2022-05-10T16:11:25.678Z</time>
      </trkpt>
      <trkpt lat="43.9594" lon="6.51594">
        <ele>902</ele>
        <time>2022-05-10T16:11:54.927Z</time>
      </trkpt>
      <trkpt lat="43.95954" lon="6.5159">
        <ele>901</ele>
        <time>2022-05-10T16:11:56.717Z</time>
      </trkpt>
      <trkpt lat="43.95965" lon="6.51587">
        <ele>901</ele>
        <time>2022-05-10T16:12:00.553Z</time>
      </trkpt>
      <trkpt lat="43.95996" lon="6.51567">
        <ele>898</ele>
        <time>2022-05-10T16:12:04.834Z</time>
      </trkpt>
      <trkpt lat="43.96009" lon="6.51551">
        <ele>896</ele>
        <time>2022-05-10T16:12:07.010Z</time>
      </trkpt>
      <trkpt lat="43.96079" lon="6.51498">
        <ele>893</ele>
        <time>2022-05-10T16:12:18.741Z</time>
      </trkpt>
      <trkpt lat="43.96143" lon="6.51457">
        <ele>893</ele>
        <time>2022-05-10T16:12:42.854Z</time>
      </trkpt>
      <trkpt lat="43.96157" lon="6.51446">
        <ele>892</ele>
        <time>2022-05-10T16:12:44.765Z</time>
      </trkpt>
      <trkpt lat="43.96161" lon="6.5144">
        <ele>891</ele>
        <time>2022-05-10T16:12:45.502Z</time>
      </trkpt>
      <trkpt lat="43.96163" lon="6.51433">
        <ele>890</ele>
        <time>2022-05-10T16:12:46.182Z</time>
      </trkpt>
      <trkpt lat="43.96149" lon="6.51371">
        <ele>887</ele>
        <time>2022-05-10T16:12:51.654Z</time>
      </trkpt>
      <trkpt lat="43.96147" lon="6.51365">
        <ele>887</ele>
        <time>2022-05-10T16:12:53.282Z</time>
      </trkpt>
      <trkpt lat="43.96144" lon="6.51362">
        <ele>887</ele>
        <time>2022-05-10T16:12:54.547Z</time>
      </trkpt>
      <trkpt lat="43.96131" lon="6.51366">
        <ele>887</ele>
        <time>2022-05-10T16:12:59.103Z</time>
      </trkpt>
      <trkpt lat="43.96119" lon="6.51368">
        <ele>886</ele>
        <time>2022-05-10T16:13:00.617Z</time>
      </trkpt>
      <trkpt lat="43.96106" lon="6.5136">
        <ele>886</ele>
        <time>2022-05-10T16:13:05.482Z</time>
      </trkpt>
      <trkpt lat="43.96096" lon="6.51344">
        <ele>886</ele>
        <time>2022-05-10T16:13:10.700Z</time>
      </trkpt>
      <trkpt lat="43.96093" lon="6.51324">
        <ele>886</ele>
        <time>2022-05-10T16:13:15.732Z</time>
      </trkpt>
      <trkpt lat="43.96093" lon="6.51304">
        <ele>887</ele>
        <time>2022-05-10T16:13:25.603Z</time>
      </trkpt>
      <trkpt lat="43.96103" lon="6.5132">
        <ele>887</ele>
        <time>2022-05-10T16:13:30.822Z</time>
      </trkpt>
      <trkpt lat="43.96116" lon="6.51327">
        <ele>887</ele>
        <time>2022-05-10T16:13:35.592Z</time>
      </trkpt>
      <trkpt lat="43.96134" lon="6.51326">
        <ele>887</ele>
        <time>2022-05-10T16:13:41.756Z</time>
      </trkpt>
      <trkpt lat="43.96139" lon="6.51323">
        <ele>887</ele>
        <time>2022-05-10T16:13:43.619Z</time>
      </trkpt>
      <trkpt lat="43.96143" lon="6.51322">
        <ele>888</ele>
        <time>2022-05-10T16:13:48.983Z</time>
      </trkpt>
      <trkpt lat="43.9615" lon="6.51315">
        <ele>888</ele>
        <time>2022-05-10T16:13:51.934Z</time>
      </trkpt>
      <trkpt lat="43.96154" lon="6.51312">
        <ele>888</ele>
        <time>2022-05-10T16:13:53.489Z</time>
      </trkpt>
      <trkpt lat="43.96157" lon="6.51306">
        <ele>888</ele>
        <time>2022-05-10T16:13:55.288Z</time>
      </trkpt>
      <trkpt lat="43.96163" lon="6.51291">
        <ele>888</ele>
        <time>2022-05-10T16:13:59.515Z</time>
      </trkpt>
      <trkpt lat="43.96192" lon="6.51232">
        <ele>888</ele>
        <time>2022-05-10T16:14:17.110Z</time>
      </trkpt>
      <trkpt lat="43.96237" lon="6.51135">
        <ele>888</ele>
        <time>2022-05-10T16:14:45.530Z</time>
      </trkpt>
      <trkpt lat="43.96278" lon="6.51044">
        <ele>887</ele>
        <time>2022-05-10T16:15:00.491Z</time>
      </trkpt>
      <trkpt lat="43.96282" lon="6.51034">
        <ele>887</ele>
        <time>2022-05-10T16:15:03.308Z</time>
      </trkpt>
      <trkpt lat="43.96287" lon="6.51039">
        <ele>887</ele>
        <time>2022-05-10T16:15:05.416Z</time>
      </trkpt>
      <trkpt lat="43.96323" lon="6.5108">
        <ele>887</ele>
        <time>2022-05-10T16:15:21.343Z</time>
      </trkpt>
      <trkpt lat="43.96334" lon="6.51097">
        <ele>887</ele>
        <time>2022-05-10T16:15:26.973Z</time>
      </trkpt>
      <trkpt lat="43.96351" lon="6.51116">
        <ele>888</ele>
        <time>2022-05-10T16:15:39.679Z</time>
      </trkpt>
      <trkpt lat="43.96376" lon="6.51168">
        <ele>888</ele>
        <time>2022-05-10T16:15:55.079Z</time>
      </trkpt>
      <trkpt lat="43.96404" lon="6.5128">
        <ele>888</ele>
        <time>2022-05-10T16:16:24.277Z</time>
      </trkpt>
      <trkpt lat="43.96421" lon="6.51296">
        <ele>888</ele>
        <time>2022-05-10T16:16:31.303Z</time>
      </trkpt>
      <trkpt lat="43.96436" lon="6.51322">
        <ele>889</ele>
        <time>2022-05-10T16:16:44.579Z</time>
      </trkpt>
      <trkpt lat="43.96448" lon="6.51334">
        <ele>889</ele>
        <time>2022-05-10T16:16:49.638Z</time>
      </trkpt>
      <trkpt lat="43.96455" lon="6.5134">
        <ele>890</ele>
        <time>2022-05-10T16:16:58.905Z</time>
      </trkpt>
      <trkpt lat="43.96474" lon="6.51351">
        <ele>891</ele>
        <time>2022-05-10T16:17:11.106Z</time>
      </trkpt>
      <trkpt lat="43.96484" lon="6.51357">
        <ele>891</ele>
        <time>2022-05-10T16:17:14.833Z</time>
      </trkpt>
      <trkpt lat="43.96491" lon="6.51353">
        <ele>891</ele>
        <time>2022-05-10T16:17:17.423Z</time>
      </trkpt>
      <trkpt lat="43.96496" lon="6.5135">
        <ele>892</ele>
        <time>2022-05-10T16:17:24.610Z</time>
      </trkpt>
      <trkpt lat="43.96513" lon="6.51336">
        <ele>892</ele>
        <time>2022-05-10T16:17:31.372Z</time>
      </trkpt>
      <trkpt lat="43.96521" lon="6.51326">
        <ele>891</ele>
        <time>2022-05-10T16:17:32.720Z</time>
      </trkpt>
      <trkpt lat="43.96601" lon="6.51186">
        <ele>889</ele>
        <time>2022-05-10T16:17:56.826Z</time>
      </trkpt>
      <trkpt lat="43.96609" lon="6.51175">
        <ele>889</ele>
        <time>2022-05-10T16:18:00.677Z</time>
      </trkpt>
      <trkpt lat="43.96626" lon="6.51151">
        <ele>889</ele>
        <time>2022-05-10T16:18:08.969Z</time>
      </trkpt>
      <trkpt lat="43.96632" lon="6.51145">
        <ele>889</ele>
        <time>2022-05-10T16:18:11.499Z</time>
      </trkpt>
      <trkpt lat="43.96635" lon="6.51139">
        <ele>889</ele>
        <time>2022-05-10T16:18:13.298Z</time>
      </trkpt>
      <trkpt lat="43.9666" lon="6.51104">
        <ele>890</ele>
        <time>2022-05-10T16:18:29.665Z</time>
      </trkpt>
      <trkpt lat="43.96671" lon="6.51086">
        <ele>890</ele>
        <time>2022-05-10T16:18:35.480Z</time>
      </trkpt>
      <trkpt lat="43.96691" lon="6.51051">
        <ele>891</ele>
        <time>2022-05-10T16:18:50.867Z</time>
      </trkpt>
      <trkpt lat="43.96704" lon="6.51032">
        <ele>891</ele>
        <time>2022-05-10T16:18:57.323Z</time>
      </trkpt>
      <trkpt lat="43.96711" lon="6.51027">
        <ele>892</ele>
        <time>2022-05-10T16:19:06.833Z</time>
      </trkpt>
      <trkpt lat="43.96713" lon="6.51025">
        <ele>892</ele>
        <time>2022-05-10T16:19:07.676Z</time>
      </trkpt>
      <trkpt lat="43.96721" lon="6.51024">
        <ele>892</ele>
        <time>2022-05-10T16:19:10.424Z</time>
      </trkpt>
      <trkpt lat="43.96734" lon="6.51017">
        <ele>893</ele>
        <time>2022-05-10T16:19:20.149Z</time>
      </trkpt>
      <trkpt lat="43.96759" lon="6.50998">
        <ele>894</ele>
        <time>2022-05-10T16:19:34.518Z</time>
      </trkpt>
      <trkpt lat="43.9677" lon="6.50992">
        <ele>895</ele>
        <time>2022-05-10T16:19:43.662Z</time>
      </trkpt>
      <trkpt lat="43.9676" lon="6.50953">
        <ele>896</ele>
        <time>2022-05-10T16:19:58.382Z</time>
      </trkpt>
      <trkpt lat="43.96757" lon="6.50948">
        <ele>897</ele>
        <time>2022-05-10T16:20:04.565Z</time>
      </trkpt>
      <trkpt lat="43.9675" lon="6.5093">
        <ele>897</ele>
        <time>2022-05-10T16:20:09.603Z</time>
      </trkpt>
      <trkpt lat="43.9674" lon="6.50916">
        <ele>897</ele>
        <time>2022-05-10T16:20:14.461Z</time>
      </trkpt>
      <trkpt lat="43.96745" lon="6.50906">
        <ele>898</ele>
        <time>2022-05-10T16:20:23.501Z</time>
      </trkpt>
      <trkpt lat="43.96783" lon="6.50931">
        <ele>898</ele>
        <time>2022-05-10T16:20:37.886Z</time>
      </trkpt>
      <trkpt lat="43.96811" lon="6.50945">
        <ele>898</ele>
        <time>2022-05-10T16:20:48.068Z</time>
      </trkpt>
      <trkpt lat="43.96823" lon="6.50955">
        <ele>897</ele>
        <time>2022-05-10T16:20:49.821Z</time>
      </trkpt>
      <trkpt lat="43.96826" lon="6.50958">
        <ele>897</ele>
        <time>2022-05-10T16:20:51.085Z</time>
      </trkpt>
      <trkpt lat="43.96828" lon="6.5096">
        <ele>897</ele>
        <time>2022-05-10T16:20:51.929Z</time>
      </trkpt>
      <trkpt lat="43.96833" lon="6.50966">
        <ele>897</ele>
        <time>2022-05-10T16:20:54.189Z</time>
      </trkpt>
      <trkpt lat="43.96835" lon="6.50968">
        <ele>897</ele>
        <time>2022-05-10T16:20:55.032Z</time>
      </trkpt>
      <trkpt lat="43.96854" lon="6.50985">
        <ele>896</ele>
        <time>2022-05-10T16:20:58.156Z</time>
      </trkpt>
      <trkpt lat="43.96908" lon="6.51045">
        <ele>895</ele>
        <time>2022-05-10T16:21:11.287Z</time>
      </trkpt>
      <trkpt lat="43.96919" lon="6.5106">
        <ele>896</ele>
        <time>2022-05-10T16:21:21.504Z</time>
      </trkpt>
      <trkpt lat="43.96937" lon="6.51074">
        <ele>896</ele>
        <time>2022-05-10T16:21:28.562Z</time>
      </trkpt>
      <trkpt lat="43.9696" lon="6.51088">
        <ele>896</ele>
        <time>2022-05-10T16:21:37.153Z</time>
      </trkpt>
      <trkpt lat="43.96963" lon="6.51088">
        <ele>896</ele>
        <time>2022-05-10T16:21:38.180Z</time>
      </trkpt>
      <trkpt lat="43.96971" lon="6.51091">
        <ele>897</ele>
        <time>2022-05-10T16:21:47.413Z</time>
      </trkpt>
      <trkpt lat="43.96986" lon="6.51092">
        <ele>897</ele>
        <time>2022-05-10T16:21:52.551Z</time>
      </trkpt>
      <trkpt lat="43.96999" lon="6.5109">
        <ele>897</ele>
        <time>2022-05-10T16:21:57.027Z</time>
      </trkpt>
      <trkpt lat="43.97027" lon="6.51086">
        <ele>898</ele>
        <time>2022-05-10T16:22:11.303Z</time>
      </trkpt>
      <trkpt lat="43.97041" lon="6.51084">
        <ele>899</ele>
        <time>2022-05-10T16:22:21.070Z</time>
      </trkpt>
      <trkpt lat="43.97061" lon="6.5108">
        <ele>900</ele>
        <time>2022-05-10T16:22:33.119Z</time>
      </trkpt>
      <trkpt lat="43.9707" lon="6.51078">
        <ele>900</ele>
        <time>2022-05-10T16:22:36.237Z</time>
      </trkpt>
      <trkpt lat="43.97078" lon="6.51092">
        <ele>900</ele>
        <time>2022-05-10T16:22:40.639Z</time>
      </trkpt>
      <trkpt lat="43.97152" lon="6.51132">
        <ele>899</ele>
        <time>2022-05-10T16:22:56.080Z</time>
      </trkpt>
      <trkpt lat="43.97163" lon="6.51147">
        <ele>899</ele>
        <time>2022-05-10T16:23:01.353Z</time>
      </trkpt>
    </trkseg>
  </trk>
</gpx>